M I D A S
Marine Information and Data Acquisition System
Tripno 595 of the Zeeleeuw from 2003-09-22 06:35:02 to 2003-09-22 13:17:30
Back to CruiseResearch ActivitiesStationsMapUnderway DataData graphs

EquipmentUnitsComment
TimeDGPSUTC
LatitudeDGPSDM.mWGS84
LongitudeDGPSDM.mWGS84
TemperatureSBE03/SBE38deg celciusITS90
ConductivitySBE21S/mITS90
SalinitySBE21 Practical Salinity Units
ChlorophylAChelsea fluorimeterg/lCalibrated in Aceton
Missing or incorrect values are displayed as -999
Sea surface data collected by the RV Zeeleeuw from 2003-09-22 06:35:02 to 2003-09-22 13:17:30
                                                                                    Next 1000 lines
Time Latitude Longitude Temperature Conductivity Salinity ChlorophylA
2003-09-22 06:35:10 51°14.31 2°55.18 -999 0.849447 4.785644 0.061486
2003-09-22 06:35:14 51°14.31 2°55.16 -999 0.84537 4.760994 0.027777
2003-09-22 06:35:18 51°14.32 2°55.15 -999 0.853733 4.811569 0.027777
2003-09-22 06:35:24 51°14.33 2°55.13 -999 0.836588 4.707941 0.027777
2003-09-22 06:35:30 51°14.34 2°55.1 -999 0.831466 4.677085 0.061486
2003-09-22 06:35:34 51°14.35 2°55.09 -999 0.816518 4.586937 0.027777
2003-09-22 06:35:38 51°14.36 2°55.07 -999 0.816518 4.586937 0.027777
2003-09-22 06:35:44 51°14.37 2°55.05 -999 0.865024 4.880061 0.027777
2003-09-22 06:35:48 51°14.38 2°55.03 -999 0.828957 4.662081 0.027777
2003-09-22 06:35:54 51°14.39 2°55.01 -999 0.853838 4.812552 0.027777
2003-09-22 06:35:58 51°14.4 2°55 -999 0.778579 4.359108 0.027777
2003-09-22 06:36:04 51°14.41 2°54.98 -999 0.778579 4.359108 0.027777
2003-09-22 06:36:10 51°14.43 2°54.95 -999 0.852792 4.806367 0.027777
2003-09-22 06:36:14 51°14.44 2°54.94 -999 0.842233 4.742593 0.027777
2003-09-22 06:36:18 51°14.45 2°54.93 -999 0.895765 5.066993 0.027777
2003-09-22 06:36:24 51°14.46 2°54.91 -999 0.844429 4.755931 0.061486
2003-09-22 06:36:28 51°14.47 2°54.9 -999 0.8897 5.030371 0.027777
2003-09-22 06:36:34 51°14.49 2°54.88 -999 0.8897 5.030371 0.027777
2003-09-22 06:36:38 51°14.5 2°54.86 -999 0.831257 4.67664 0.027777
2003-09-22 06:36:44 51°14.52 2°54.84 -999 0.819759 4.607406 0.061486
2003-09-22 06:36:50 51°14.54 2°54.82 -999 0.826449 4.647892 0.027777
2003-09-22 06:36:54 51°14.55 2°54.81 -999 0.827598 4.654898 0.061486
2003-09-22 06:36:58 51°14.56 2°54.8 -999 0.846729 4.77046 -0.005933
2003-09-22 06:37:04 51°14.58 2°54.78 -999 0.846729 4.77046 -0.005933
2003-09-22 06:37:08 51°14.59 2°54.77 -999 0.835229 4.701036 0.027777
2003-09-22 06:37:14 51°14.61 2°54.75 -999 0.853315 4.810371 0.027777
2003-09-22 06:37:18 51°14.62 2°54.74 -999 0.858333 4.840745 0.061486
2003-09-22 06:37:24 51°14.64 2°54.72 -999 0.843592 4.751637 0.027777
2003-09-22 06:37:28 51°14.65 2°54.71 -999 0.80523 4.520337 0.027777
2003-09-22 06:37:34 51°14.67 2°54.69 -999 0.80523 4.520337 0.027777
2003-09-22 06:37:38 51°14.68 2°54.68 -999 0.803662 4.510899 0.027777
2003-09-22 06:37:44 51°14.7 2°54.66 -999 0.805962 4.524874 0.061486
2003-09-22 06:37:50 51°14.72 2°54.64 -999 0.834811 4.698989 0.027777
2003-09-22 06:37:54 51°14.73 2°54.63 -999 0.864711 4.879867 0.027777
2003-09-22 06:37:58 51°14.74 2°54.61 -999 0.814742 4.577964 0.027777
2003-09-22 06:38:04 51°14.76 2°54.59 -999 0.858542 4.842575 0.027777
2003-09-22 06:38:08 51°14.77 2°54.58 -999 0.858542 4.842575 0.027777
2003-09-22 06:38:14 51°14.79 2°54.56 -999 0.808052 4.53766 0.027777
2003-09-22 06:38:18 51°14.8 2°54.55 -999 0.846206 4.768064 0.061486
2003-09-22 06:38:24 51°14.82 2°54.53 -999 0.846938 4.772489 0.027777
2003-09-22 06:38:30 51°14.84 2°54.51 -999 0.827494 4.655081 0.027777
2003-09-22 06:38:34 51°14.86 2°54.5 -999 0.846101 4.76757 0.027777
2003-09-22 06:38:38 51°14.87 2°54.49 -999 0.846101 4.76757 0.027777
2003-09-22 06:38:44 51°14.89 2°54.47 -999 0.84192 4.742425 0.027777
2003-09-22 06:38:48 51°14.9 2°54.45 -999 0.844951 4.760824 0.027777
2003-09-22 06:38:54 51°14.92 2°54.44 -999 0.856451 4.830549 0.061486
2003-09-22 06:38:58 51°14.93 2°54.42 -999 0.779938 4.369169 0.061486
2003-09-22 06:39:04 51°14.95 2°54.4 -999 0.828121 4.659342 0.027777
2003-09-22 06:39:08 51°14.96 2°54.39 -999 0.828121 4.659342 0.027777
2003-09-22 06:39:14 51°14.98 2°54.37 -999 0.877362 4.957509 0.027777
2003-09-22 06:39:18 51°15 2°54.36 -999 0.842861 4.748528 0.027777
2003-09-22 06:39:24 51°15.01 2°54.34 -999 0.833348 4.691107 0.061486
2003-09-22 06:39:28 51°15.03 2°54.33 -999 0.85781 4.839131 0.061486
2003-09-22 06:39:34 51°15.05 2°54.31 -999 0.85781 4.839131 0.061486
2003-09-22 06:39:38 51°15.06 2°54.29 -999 0.855197 4.823446 0.027777
2003-09-22 06:39:44 51°15.08 2°54.28 -999 0.804289 4.516121 0.061486
2003-09-22 06:39:46 51°15.09 2°54.27 -999 0.844638 4.75976 0.061486
2003-09-22 06:39:54 51°15.11 2°54.24 -999 0.780774 4.374891 0.027777
2003-09-22 06:39:58 51°15.12 2°54.23 -999 0.816937 4.5926 0.027777
2003-09-22 06:40:04 51°15.14 2°54.21 -999 0.845265 4.763832 0.027777
2003-09-22 06:40:08 51°15.16 2°54.2 -999 0.845265 4.763832 0.027777
2003-09-22 06:40:14 51°15.18 2°54.18 -999 0.87297 4.931731 0.027777
2003-09-22 06:40:18 51°15.19 2°54.17 -999 0.822895 4.628878 0.027777
2003-09-22 06:40:24 51°15.21 2°54.15 -999 0.847879 4.779921 0.061486
2003-09-22 06:40:28 51°15.22 2°54.13 -999 0.844324 4.758487 0.027777
2003-09-22 06:40:34 51°15.24 2°54.11 -999 0.83178 4.682729 0.027777
2003-09-22 06:40:38 51°15.25 2°54.1 -999 0.83178 4.682729 0.027777
2003-09-22 06:40:44 51°15.27 2°54.08 -999 0.825299 4.64366 0.027777
2003-09-22 06:40:48 51°15.28 2°54.07 -999 0.826658 4.651999 0.061486
2003-09-22 06:40:54 51°15.3 2°54.05 -999 0.860947 4.859545 0.027777
2003-09-22 06:40:58 51°15.32 2°54.04 -999 0.815369 4.584081 0.027777
2003-09-22 06:41:04 51°15.34 2°54.02 -999 0.831675 4.682575 0.027777
2003-09-22 06:41:08 51°15.35 2°54 -999 0.831675 4.682575 0.027777
2003-09-22 06:41:14 51°15.37 2°53.98 -999 0.832512 4.687696 0.027777
2003-09-22 06:41:18 51°15.38 2°53.97 -999 0.805021 4.521976 0.027777
2003-09-22 06:41:24 51°15.4 2°53.95 -999 0.820177 4.613489 0.027777
2003-09-22 06:41:30 51°15.42 2°53.93 -999 0.830212 4.674143 0.027777
2003-09-22 06:41:34 51°15.43 2°53.91 -999 0.830212 4.674143 0.027777
2003-09-22 06:41:38 51°15.44 2°53.9 -999 0.816728 4.592812 0.027777
2003-09-22 06:41:44 51°15.46 2°53.88 -999 0.835752 4.707759 0.061486
2003-09-22 06:41:48 51°15.48 2°53.87 -999 0.889282 5.032304 0.027777
2003-09-22 06:41:54 51°15.5 2°53.85 -999 0.856451 4.833155 0.061486
2003-09-22 06:41:58 51°15.51 2°53.84 -999 0.876316 4.953765 0.027777
2003-09-22 06:42:04 51°15.53 2°53.82 -999 0.872029 4.927891 0.061486
2003-09-22 06:42:10 51°15.55 2°53.8 -999 0.872029 4.927891 0.061486
2003-09-22 06:42:14 51°15.56 2°53.79 -999 0.878616 4.96802 0.027777
2003-09-22 06:42:18 51°15.58 2°53.78 -999 0.795928 4.468137 0.027777
2003-09-22 06:42:24 51°15.6 2°53.76 -999 0.869938 4.915562 0.061486
2003-09-22 06:42:28 51°15.61 2°53.75 -999 0.810979 4.559075 0.061486
2003-09-22 06:42:34 51°15.63 2°53.73 -999 0.80962 4.550882 0.027777
2003-09-22 06:42:38 51°15.64 2°53.72 -999 0.80962 4.550882 0.027777
2003-09-22 06:42:44 51°15.66 2°53.7 -999 0.830735 4.67846 -0.005933
2003-09-22 06:42:48 51°15.68 2°53.69 -999 0.826867 4.655297 0.027777
2003-09-22 06:42:54 51°15.7 2°53.67 -999 0.862515 4.871038 0.027777
2003-09-22 06:42:58 51°15.71 2°53.66 -999 0.864293 4.881958 0.027777
2003-09-22 06:43:04 51°15.73 2°53.64 -999 0.839516 4.732029 0.061486
2003-09-22 06:43:08 51°15.74 2°53.63 -999 0.839516 4.732029 0.061486
2003-09-22 06:43:14 51°15.76 2°53.61 -999 0.825822 4.649322 0.027777
2003-09-22 06:43:18 51°15.78 2°53.6 -999 0.892419 5.053144 0.061486
2003-09-22 06:43:24 51°15.79 2°53.58 -999 0.808052 4.542292 0.061486
2003-09-22 06:43:28 51°15.81 2°53.57 -999 0.81171 4.564418 0.061486
2003-09-22 06:43:34 51°15.83 2°53.55 -999 0.853733 4.818588 0.027777
2003-09-22 06:43:38 51°15.84 2°53.54 -999 0.853733 4.818588 0.027777
2003-09-22 06:43:44 51°15.86 2°53.52 -999 0.82833 4.664954 0.027777
2003-09-22 06:43:48 51°15.87 2°53.51 -999 0.85321 4.815632 0.027777
2003-09-22 06:43:54 51°15.89 2°53.49 -999 0.858647 4.84872 0.027777
2003-09-22 06:43:58 51°15.91 2°53.47 -999 0.808784 4.5473 0.061486
2003-09-22 06:44:04 51°15.93 2°53.45 -999 0.808784 4.5473 0.061486
2003-09-22 06:44:08 51°15.94 2°53.44 -999 0.820909 4.620531 0.027777
2003-09-22 06:44:14 51°15.96 2°53.42 -999 0.82833 4.665567 0.027777
2003-09-22 06:44:18 51°15.97 2°53.41 -999 0.8207 4.619404 0.027777
2003-09-22 06:44:24 51°15.99 2°53.39 -999 0.82164 4.62522 -0.005933
2003-09-22 06:44:28 51°16 2°53.38 -999 0.846729 4.777073 0.027777
2003-09-22 06:44:34 51°16.02 2°53.36 -999 0.86837 4.90841 0.027777
2003-09-22 06:44:38 51°16.04 2°53.35 -999 0.86837 4.90841 0.027777
2003-09-22 06:44:44 51°16.06 2°53.33 -999 0.821431 4.624362 0.027777
2003-09-22 06:44:48 51°16.07 2°53.32 -999 0.841815 4.747744 0.027777
2003-09-22 06:44:54 51°16.09 2°53.3 -999 0.886668 5.019933 0.061486
2003-09-22 06:44:58 51°16.1 2°53.29 -999 0.792584 4.450605 0.027777
2003-09-22 06:45:04 51°16.13 2°53.28 -999 0.792584 4.450605 0.027777
2003-09-22 06:45:08 51°16.14 2°53.27 -999 0.841188 4.744155 -0.005933
2003-09-22 06:45:14 51°16.16 2°53.25 -999 0.896497 5.08003 0.027777
2003-09-22 06:45:18 51°16.17 2°53.24 -999 0.872029 4.931344 0.027777
2003-09-22 06:45:24 51°16.19 2°53.22 -999 0.823104 4.63514 0.061486
2003-09-22 06:45:28 51°16.21 2°53.21 -999 0.870252 4.920911 0.061486
2003-09-22 06:45:34 51°16.23 2°53.2 -999 0.820491 4.619557 0.027777
2003-09-22 06:45:38 51°16.24 2°53.19 -999 0.820491 4.619557 0.027777
2003-09-22 06:45:44 51°16.26 2°53.17 -999 0.833766 4.700004 0.027777
2003-09-22 06:45:48 51°16.28 2°53.16 -999 0.845056 4.768406 0.027777
2003-09-22 06:45:54 51°16.3 2°53.14 -999 0.838784 4.73064 0.027777
2003-09-22 06:45:58 51°16.31 2°53.13 -999 0.824567 4.644727 0.027777
2003-09-22 06:46:04 51°16.33 2°53.12 -999 0.83732 4.72192 0.027777
2003-09-22 06:46:08 51°16.34 2°53.11 -999 0.83732 4.72192 0.027777
2003-09-22 06:46:14 51°16.37 2°53.09 -999 0.817041 4.599465 0.061486
2003-09-22 06:46:18 51°16.38 2°53.08 -999 0.849238 4.794367 0.061486
2003-09-22 06:46:24 51°16.4 2°53.07 -999 0.842756 4.755104 0.061486
2003-09-22 06:46:28 51°16.41 2°53.06 -999 0.81631 4.595315 0.027777
2003-09-22 06:46:34 51°16.43 2°53.04 -999 0.852792 4.816191 0.061486
2003-09-22 06:46:38 51°16.45 2°53.03 -999 0.852792 4.816191 0.061486
2003-09-22 06:46:42 51°16.46 2°53.02 -999 0.832303 4.692179 0.027777
2003-09-22 06:46:46 51°16.47 2°53.01 -999 0.811083 4.564098 0.027777
2003-09-22 06:46:54 51°16.5 2°52.99 -999 0.860424 4.862831 0.027777
2003-09-22 06:46:58 51°16.51 2°52.98 -999 0.807007 4.539699 0.027777
2003-09-22 06:47:04 51°16.53 2°52.96 -999 0.888236 5.032116 0.027777
2003-09-22 06:47:08 51°16.55 2°52.95 -999 0.888236 5.032116 0.027777
2003-09-22 06:47:14 51°16.57 2°52.93 -999 0.839725 4.737649 0.027777
2003-09-22 06:47:18 51°16.58 2°52.92 -999 0.846206 4.777045 0.027777
2003-09-22 06:47:24 51°16.6 2°52.91 -999 0.851015 4.80626 0.027777
2003-09-22 06:47:28 51°16.62 2°52.9 -999 0.883635 5.004419 0.061486
2003-09-22 06:47:34 51°16.64 2°52.88 -999 0.812024 4.570577 0.061486
2003-09-22 06:47:38 51°16.65 2°52.87 -999 0.812024 4.570577 0.061486
2003-09-22 06:47:44 51°16.67 2°52.85 -999 0.847774 4.786897 0.061486
2003-09-22 06:47:48 51°16.68 2°52.84 -999 0.852479 4.815485 0.061486
2003-09-22 06:47:54 51°16.7 2°52.83 -999 0.860633 4.865095 0.061486
2003-09-22 06:47:58 51°16.71 2°52.82 -999 0.825926 4.654979 0.027777
2003-09-22 06:48:02 51°16.73 2°52.8 -999 0.837425 4.724691 0.061486
2003-09-22 06:48:06 51°16.74 2°52.79 -999 0.837425 4.724691 0.061486
2003-09-22 06:48:14 51°16.77 2°52.77 -999 0.794883 4.467775 0.027777
2003-09-22 06:48:18 51°16.78 2°52.76 -999 0.80105 4.505083 0.027777
2003-09-22 06:48:24 51°16.8 2°52.75 -999 0.818505 4.610524 0.061486
2003-09-22 06:48:28 51°16.82 2°52.74 -999 0.855824 4.836622 0.027777
2003-09-22 06:48:34 51°16.84 2°52.72 -999 0.855824 4.836622 0.027777
2003-09-22 06:48:38 51°16.85 2°52.71 -999 0.771683 4.328508 0.061486
2003-09-22 06:48:44 51°16.87 2°52.7 -999 0.882276 4.997612 0.027777
2003-09-22 06:48:50 51°16.89 2°52.68 -999 0.800736 4.503784 0.027777
2003-09-22 06:48:54 51°16.9 2°52.67 -999 0.794988 4.469188 0.027777
2003-09-22 06:48:58 51°16.91 2°52.66 -999 0.818191 4.609302 0.061486
2003-09-22 06:49:04 51°16.93 2°52.64 -999 0.84307 4.759992 0.027777
2003-09-22 06:49:08 51°16.95 2°52.63 -999 0.84307 4.759992 0.027777
2003-09-22 06:49:14 51°16.97 2°52.61 -999 0.860111 4.863486 0.027777
2003-09-22 06:49:18 51°16.98 2°52.6 -999 0.834184 4.706312 0.027777
2003-09-22 06:49:24 51°17 2°52.59 -999 0.833453 4.702157 -0.005933
2003-09-22 06:49:28 51°17.02 2°52.58 -999 0.799586 4.497506 0.027777
2003-09-22 06:49:34 51°17.04 2°52.56 -999 0.813906 4.583945 0.061486
2003-09-22 06:49:38 51°17.05 2°52.55 -999 0.813906 4.583945 0.061486
2003-09-22 06:49:44 51°17.07 2°52.53 -999 0.828435 4.671994 0.027777
2003-09-22 06:49:48 51°17.08 2°52.52 -999 0.80962 4.558328 0.027777
2003-09-22 06:49:54 51°17.1 2°52.51 -999 0.829167 4.676627 0.027777
2003-09-22 06:49:58 51°17.12 2°52.5 -999 0.84077 4.747029 0.027777
2003-09-22 06:50:04 51°17.14 2°52.48 -999 0.826867 4.662984 0.061486
2003-09-22 06:50:08 51°17.15 2°52.47 -999 0.826867 4.662984 0.061486
2003-09-22 06:50:14 51°17.17 2°52.45 -999 0.813069 4.57963 0.027777
2003-09-22 06:50:18 51°17.18 2°52.44 -999 0.849343 4.799276 0.061486
2003-09-22 06:50:24 51°17.2 2°52.43 -999 0.792897 4.458087 0.027777
2003-09-22 06:50:28 51°17.22 2°52.42 -999 0.872971 4.942977 0.027777
2003-09-22 06:50:34 51°17.24 2°52.4 -999 0.872971 4.942977 0.027777
2003-09-22 06:50:38 51°17.25 2°52.39 -999 0.812233 4.575046 0.027777
2003-09-22 06:50:44 51°17.27 2°52.37 -999 0.856138 4.841072 0.027777
2003-09-22 06:50:48 51°17.29 2°52.36 -999 0.83753 4.728226 0.027777
2003-09-22 06:50:54 51°17.31 2°52.35 -999 0.87893 4.979808 0.027777
2003-09-22 06:50:58 51°17.32 2°52.33 -999 0.842338 4.757644 0.061486
2003-09-22 06:51:04 51°17.34 2°52.32 -999 0.751306 4.208671 0.027777
2003-09-22 06:51:08 51°17.35 2°52.31 -999 0.751306 4.208671 0.027777
2003-09-22 06:51:14 51°17.37 2°52.29 -999 0.776699 4.361347 0.027777
2003-09-22 06:51:18 51°17.38 2°52.27 -999 0.787358 4.425804 0.027777
2003-09-22 06:51:24 51°17.4 2°52.25 -999 0.767607 4.307095 0.027777
2003-09-22 06:51:28 51°17.41 2°52.23 -999 0.832198 4.697035 0.027777
2003-09-22 06:51:34 51°17.43 2°52.21 -999 0.839411 4.740805 0.061486
2003-09-22 06:51:38 51°17.44 2°52.19 -999 0.839411 4.740805 0.061486
2003-09-22 06:51:44 51°17.46 2°52.17 -999 0.827076 4.666159 0.061486
2003-09-22 06:51:48 51°17.47 2°52.15 -999 0.874121 4.951708 0.027777
2003-09-22 06:51:54 51°17.49 2°52.13 -999 0.792584 4.45789 0.061486
2003-09-22 06:51:58 51°17.5 2°52.11 -999 0.794883 4.471759 -0.005933
2003-09-22 06:52:04 51°17.51 2°52.09 -999 0.794883 4.471759 -0.005933
2003-09-22 06:52:08 51°17.52 2°52.07 -999 0.79551 4.475541 0.027777
2003-09-22 06:52:14 51°17.54 2°52.04 -999 0.759561 4.259293 0.027777
2003-09-22 06:52:18 51°17.55 2°52.03 -999 0.841607 4.754669 0.027777
2003-09-22 06:52:24 51°17.56 2°52 -999 0.787986 4.430684 0.061486
2003-09-22 06:52:30 51°17.57 2°51.97 -999 0.834184 4.710029 0.027777
2003-09-22 06:52:34 51°17.58 2°51.95 -999 0.827285 4.668312 0.061486
2003-09-22 06:52:38 51°17.59 2°51.93 -999 0.827285 4.668312 0.061486
2003-09-22 06:52:44 51°17.6 2°51.9 -999 0.806798 4.544543 0.061486
2003-09-22 06:52:48 51°17.61 2°51.88 -999 0.85112 4.813012 0.027777
2003-09-22 06:52:54 51°17.62 2°51.85 -999 0.830526 4.688278 0.061486
2003-09-22 06:52:58 51°17.63 2°51.83 -999 0.795719 4.477915 0.061486
2003-09-22 06:53:04 51°17.65 2°51.8 -999 0.839516 4.742895 0.027777
2003-09-22 06:53:10 51°17.66 2°51.77 -999 0.839516 4.742895 0.027777
2003-09-22 06:53:14 51°17.67 2°51.75 -999 0.849761 4.805185 0.027777
2003-09-22 06:53:18 51°17.67 2°51.73 -999 0.824045 4.649444 0.027777
2003-09-22 06:53:24 51°17.69 2°51.7 -999 0.797601 4.489663 0.061486
2003-09-22 06:53:30 51°17.7 2°51.68 -999 0.859379 4.864021 0.027777
2003-09-22 06:53:34 51°17.71 2°51.66 -999 0.840143 4.747323 0.027777
2003-09-22 06:53:38 51°17.72 2°51.64 -999 0.840143 4.747323 0.027777
2003-09-22 06:53:44 51°17.73 2°51.61 -999 0.838052 4.734785 0.027777
2003-09-22 06:53:48 51°17.74 2°51.59 -999 0.766876 4.305024 0.061486
2003-09-22 06:53:54 51°17.75 2°51.56 -999 0.87548 4.962446 0.027777
2003-09-22 06:53:58 51°17.76 2°51.55 -999 0.786209 4.42172 0.027777
2003-09-22 06:54:04 51°17.77 2°51.52 -999 0.790076 4.445106 0.027777
2003-09-22 06:54:08 51°17.78 2°51.5 -999 0.790076 4.445106 0.027777
2003-09-22 06:54:14 51°17.79 2°51.47 -999 0.851434 4.816677 0.027777
2003-09-22 06:54:18 51°17.8 2°51.45 -999 0.821432 4.634916 0.027777
2003-09-22 06:54:24 51°17.81 2°51.43 -999 0.804499 4.532708 0.027777
2003-09-22 06:54:28 51°17.82 2°51.41 -999 0.813697 4.588449 0.027777
2003-09-22 06:54:34 51°17.83 2°51.38 -999 0.818296 4.61641 0.027777
2003-09-22 06:54:38 51°17.84 2°51.36 -999 0.818296 4.61641 0.027777
2003-09-22 06:54:44 51°17.85 2°51.33 -999 0.844325 4.774224 0.061486
2003-09-22 06:54:50 51°17.87 2°51.3 -999 0.803663 4.528054 0.061486
2003-09-22 06:54:54 51°17.88 2°51.29 -999 0.795719 4.480274 0.027777
2003-09-22 06:54:58 51°17.88 2°51.27 -999 0.843384 4.768794 0.061486
2003-09-22 06:55:04 51°17.9 2°51.24 -999 0.843384 4.768794 0.061486
2003-09-22 06:55:08 51°17.91 2°51.22 -999 0.817982 4.614985 0.027777
2003-09-22 06:55:14 51°17.92 2°51.19 -999 0.837321 4.732287 -0.005933
2003-09-22 06:55:18 51°17.93 2°51.18 -999 0.802513 4.521703 0.027777
2003-09-22 06:55:24 51°17.94 2°51.15 -999 0.854884 4.839261 0.027777
2003-09-22 06:55:28 51°17.95 2°51.13 -999 0.804917 4.536562 0.061486
2003-09-22 06:55:34 51°17.96 2°51.1 -999 0.804917 4.536562 0.061486
2003-09-22 06:55:38 51°17.97 2°51.08 -999 0.795824 4.481692 0.027777
2003-09-22 06:55:44 51°17.98 2°51.05 -999 0.822477 4.643011 0.027777
2003-09-22 06:55:48 51°17.99 2°51.03 -999 0.837007 4.731147 0.027777
2003-09-22 06:55:54 51°18 2°51.01 -999 0.810666 4.571723 0.027777
2003-09-22 06:55:58 51°18.01 2°50.99 -999 0.851956 4.822181 0.027777
2003-09-22 06:56:04 51°18.02 2°50.96 -999 0.851956 4.822181 0.027777
2003-09-22 06:56:08 51°18.03 2°50.94 -999 0.783178 4.405963 -0.005933
2003-09-22 06:56:14 51°18.05 2°50.91 -999 0.815578 4.601716 0.061486
2003-09-22 06:56:18 51°18.05 2°50.9 -999 0.826031 4.665222 0.027777
2003-09-22 06:56:24 51°18.07 2°50.87 -999 0.806485 4.547038 0.027777
2003-09-22 06:56:28 51°18.08 2°50.85 -999 0.871403 4.941175 0.027777
2003-09-22 06:56:34 51°18.09 2°50.82 -999 0.773668 4.349213 0.027777
2003-09-22 06:56:38 51°18.1 2°50.8 -999 0.773668 4.349213 0.027777
2003-09-22 06:56:44 51°18.11 2°50.77 -999 0.849343 4.807219 0.027777
2003-09-22 06:56:50 51°18.12 2°50.75 -999 0.821954 4.641205 0.061486
2003-09-22 06:56:54 51°18.13 2°50.73 -999 0.798019 4.496462 0.027777
2003-09-22 06:56:58 51°18.14 2°50.71 -999 0.849865 4.810818 0.027777
2003-09-22 06:57:04 51°18.15 2°50.68 -999 0.833139 4.709346 0.027777
2003-09-22 06:57:08 51°18.16 2°50.66 -999 0.833139 4.709346 0.027777
2003-09-22 06:57:14 51°18.17 2°50.63 -999 0.800005 4.508858 0.027777
2003-09-22 06:57:18 51°18.18 2°50.62 -999 0.878094 4.983029 0.027777
2003-09-22 06:57:24 51°18.19 2°50.59 -999 0.788613 4.440308 0.027777
2003-09-22 06:57:26 51°18.2 2°50.58 -999 0.831571 4.700387 0.061486
2003-09-22 06:57:34 51°18.22 2°50.54 -999 0.787359 4.432933 0.027777
2003-09-22 06:57:38 51°18.22 2°50.52 -999 0.787359 4.432933 0.027777
2003-09-22 06:57:44 51°18.24 2°50.49 -999 0.866698 4.91419 0.027777
2003-09-22 06:57:48 51°18.25 2°50.48 -999 0.830212 4.692626 0.061486
2003-09-22 06:57:54 51°18.26 2°50.45 -999 0.793211 4.46873 0.027777
2003-09-22 06:57:58 51°18.27 2°50.43 -999 0.852165 4.826138 0.061486
2003-09-22 06:58:04 51°18.28 2°50.4 -999 0.827808 4.678458 0.027777
2003-09-22 06:58:08 51°18.29 2°50.38 -999 0.827808 4.678458 0.027777
2003-09-22 06:58:14 51°18.3 2°50.35 -999 0.796451 4.488634 0.027777
2003-09-22 06:58:18 51°18.31 2°50.34 -999 0.871298 4.943001 0.027777
2003-09-22 06:58:24 51°18.32 2°50.31 -999 0.848506 4.804391 0.027777
2003-09-22 06:58:28 51°18.33 2°50.29 -999 0.840875 4.758238 0.027777
2003-09-22 06:58:34 51°18.35 2°50.26 -999 0.806067 4.547307 0.027777
2003-09-22 06:58:38 51°18.35 2°50.24 -999 0.806067 4.547307 0.027777
2003-09-22 06:58:44 51°18.37 2°50.22 -999 0.872553 4.951153 0.027777
2003-09-22 06:58:48 51°18.38 2°50.2 -999 0.821745 4.642522 0.027777
2003-09-22 06:58:54 51°18.39 2°50.17 -999 0.849343 4.810109 0.027777
2003-09-22 06:58:58 51°18.4 2°50.15 -999 0.86973 4.934316 0.027777
2003-09-22 06:59:04 51°18.41 2°50.12 -999 0.86973 4.934316 0.027777
2003-09-22 06:59:08 51°18.42 2°50.1 -999 0.776908 4.371808 0.027777
2003-09-22 06:59:14 51°18.43 2°50.08 -999 0.878199 4.986297 0.027777
2003-09-22 06:59:18 51°18.44 2°50.06 -999 0.840666 4.758015 0.027777
2003-09-22 06:59:24 51°18.46 2°50.03 -999 0.842129 4.767045 0.061486
2003-09-22 06:59:28 51°18.47 2°50.01 -999 0.75768 4.256456 0.027777
2003-09-22 06:59:34 51°18.48 2°49.98 -999 0.75768 4.256456 0.027777
2003-09-22 06:59:38 51°18.49 2°49.96 -999 0.86147 4.885023 0.061486
2003-09-22 06:59:44 51°18.51 2°49.93 -999 0.812756 4.589343 0.027777
2003-09-22 06:59:48 51°18.52 2°49.92 -999 0.833139 4.713006 0.027777
2003-09-22 06:59:54 51°18.53 2°49.89 -999 0.821745 4.64402 0.027777
2003-09-22 06:59:58 51°18.54 2°49.87 -999 0.815369 4.60551 0.027777
2003-09-22 07:00:04 51°18.55 2°49.84 -999 0.833244 4.714124 -0.005933
2003-09-22 07:00:08 51°18.56 2°49.82 -999 0.833244 4.714124 -0.005933
2003-09-22 07:00:14 51°18.57 2°49.79 -999 0.819446 4.630487 0.027777
2003-09-22 07:00:18 51°18.58 2°49.78 -999 0.787359 4.436442 0.061486
2003-09-22 07:00:24 51°18.59 2°49.75 -999 0.794988 4.482682 0.027777
2003-09-22 07:00:28 51°18.6 2°49.73 -999 0.840352 4.757714 0.061486
2003-09-22 07:00:34 51°18.61 2°49.7 -999 0.787359 4.436832 0.027777
2003-09-22 07:00:38 51°18.62 2°49.68 -999 0.787359 4.436832 0.027777
2003-09-22 07:00:44 51°18.63 2°49.65 -999 0.872657 4.954551 0.027777
2003-09-22 07:00:50 51°18.65 2°49.63 -999 0.801782 4.524303 0.027777
2003-09-22 07:00:54 51°18.65 2°49.61 -999 0.819864 4.633905 0.061486
2003-09-22 07:00:58 51°18.66 2°49.59 -999 0.800214 4.515016 0.027777
2003-09-22 07:01:04 51°18.68 2°49.56 -999 0.811188 4.581594 0.061486
2003-09-22 07:01:08 51°18.68 2°49.54 -999 0.811188 4.581594 0.061486
2003-09-22 07:01:14 51°18.7 2°49.51 -999 0.832199 4.709091 0.027777
2003-09-22 07:01:18 51°18.7 2°49.5 -999 0.835962 4.732154 0.027777
2003-09-22 07:01:24 51°18.72 2°49.47 -999 0.785791 4.428271 0.027777
2003-09-22 07:01:28 51°18.73 2°49.45 -999 0.813697 4.597333 0.027777
2003-09-22 07:01:34 51°18.74 2°49.42 -999 0.826867 4.677347 0.027777
2003-09-22 07:01:38 51°18.75 2°49.4 -999 0.826867 4.677347 0.027777
2003-09-22 07:01:44 51°18.76 2°49.38 -999 0.827286 4.680022 0.027777
2003-09-22 07:01:48 51°18.77 2°49.36 -999 0.813488 4.596471 0.061486
2003-09-22 07:01:54 51°18.78 2°49.33 -999 0.820178 4.637167 0.061486
2003-09-22 07:01:58 51°18.79 2°49.31 -999 0.834185 4.72233 0.027777
2003-09-22 07:02:04 51°18.8 2°49.28 -999 0.813697 4.59821 0.027777
2003-09-22 07:02:08 51°18.81 2°49.27 -999 0.813697 4.59821 0.027777
2003-09-22 07:02:14 51°18.82 2°49.24 -999 0.84767 4.804592 0.027777
2003-09-22 07:02:18 51°18.83 2°49.22 -999 0.826031 4.6733 0.027777
2003-09-22 07:02:24 51°18.84 2°49.19 -999 0.796974 4.497196 0.027777
2003-09-22 07:02:28 51°18.85 2°49.17 -999 0.830631 4.701364 0.027777
2003-09-22 07:02:34 51°18.87 2°49.14 -999 0.86513 4.911412 0.027777
2003-09-22 07:02:38 51°18.87 2°49.13 -999 0.86513 4.911412 0.027777
2003-09-22 07:02:44 51°18.89 2°49.1 -999 0.789867 4.454601 0.027777
2003-09-22 07:02:48 51°18.89 2°49.08 -999 0.769175 4.329689 0.027777
2003-09-22 07:02:54 51°18.91 2°49.05 -999 0.813174 4.595919 0.027777
2003-09-22 07:02:58 51°18.92 2°49.03 -999 0.852584 4.835415 0.027777
2003-09-22 07:03:04 51°18.93 2°49 -999 0.852584 4.835415 0.027777
2003-09-22 07:03:08 51°18.94 2°48.99 -999 0.76186 4.285893 -0.005933
2003-09-22 07:03:14 51°18.95 2°48.96 -999 0.826972 4.679973 0.027777
2003-09-22 07:03:18 51°18.96 2°48.94 -999 0.846729 4.800207 0.027777
2003-09-22 07:03:24 51°18.97 2°48.91 -999 0.909778 5.185252 0.027777
2003-09-22 07:03:28 51°18.98 2°48.89 -999 0.797601 4.502312 -0.005933
2003-09-22 07:03:34 51°18.99 2°48.86 -999 0.791957 4.468357 -0.005933
2003-09-22 07:03:38 51°19 2°48.85 -999 0.791957 4.468357 -0.005933
2003-09-22 07:03:44 51°19.01 2°48.82 -999 0.821118 4.645123 0.027777
2003-09-22 07:03:48 51°19.02 2°48.8 -999 0.849134 4.815547 0.061486
2003-09-22 07:03:54 51°19.03 2°48.77 -999 0.795511 4.490056 0.061486
2003-09-22 07:03:58 51°19.04 2°48.75 -999 0.827181 4.682274 0.027777
2003-09-22 07:04:04 51°19.05 2°48.72 -999 0.774505 4.363388 0.027777
2003-09-22 07:04:08 51°19.06 2°48.71 -999 0.774505 4.363388 0.027777
2003-09-22 07:04:14 51°19.08 2°48.68 -999 0.880708 5.008582 0.027777
2003-09-22 07:04:18 51°19.08 2°48.66 -999 0.770847 4.341497 -0.005933
2003-09-22 07:04:24 51°19.1 2°48.63 -999 0.807844 4.565555 0.061486
2003-09-22 07:04:28 51°19.1 2°48.61 -999 0.829376 4.696297 0.027777
2003-09-22 07:04:34 51°19.12 2°48.58 -999 0.814115 4.603853 0.061486
2003-09-22 07:04:38 51°19.13 2°48.56 -999 0.814115 4.603853 0.061486
2003-09-22 07:04:44 51°19.14 2°48.54 -999 0.826136 4.676887 0.027777
2003-09-22 07:04:48 51°19.15 2°48.52 -999 0.790599 4.461579 0.027777
2003-09-22 07:04:54 51°19.16 2°48.49 -999 0.797706 4.50473 0.027777
2003-09-22 07:04:58 51°19.17 2°48.47 -999 0.856243 4.86048 0.061486
2003-09-22 07:05:04 51°19.18 2°48.44 -999 0.791435 4.467032 0.027777
2003-09-22 07:05:08 51°19.19 2°48.43 -999 0.791435 4.467032 0.027777
2003-09-22 07:05:14 51°19.2 2°48.4 -999 0.838889 4.755102 0.027777
2003-09-22 07:05:18 51°19.21 2°48.38 -999 0.830631 4.705025 0.027777
2003-09-22 07:05:24 51°19.22 2°48.35 -999 0.832094 4.71406 0.027777
2003-09-22 07:05:28 51°19.23 2°48.33 -999 0.806172 4.556824 0.027777
2003-09-22 07:05:34 51°19.25 2°48.3 -999 0.814742 4.608944 0.027777
2003-09-22 07:05:38 51°19.25 2°48.28 -999 0.814742 4.608944 0.027777
2003-09-22 07:05:44 51°19.27 2°48.26 -999 0.82185 4.65216 0.027777
2003-09-22 07:05:50 51°19.28 2°48.23 -999 0.823523 4.662523 0.027777
2003-09-22 07:05:54 51°19.29 2°48.21 -999 0.807635 4.566233 0.027777
2003-09-22 07:05:58 51°19.29 2°48.19 -999 0.789449 4.456194 0.027777
2003-09-22 07:06:04 51°19.31 2°48.16 -999 0.789449 4.456194 0.027777
2003-09-22 07:06:08 51°19.32 2°48.14 -999 0.794466 4.486563 0.027777
2003-09-22 07:06:14 51°19.33 2°48.11 -999 0.79133 4.467777 0.027777
2003-09-22 07:06:18 51°19.34 2°48.09 -999 0.89472 5.097219 0.027777
2003-09-22 07:06:24 51°19.35 2°48.06 -999 0.771997 4.35112 0.027777
2003-09-22 07:06:28 51°19.36 2°48.04 -999 0.857916 4.87268 0.027777
2003-09-22 07:06:34 51°19.37 2°48.01 31.156583 0.824359 4.668632 0.027777
2003-09-22 07:06:38 51°19.38 2°48 31.156583 0.824359 4.668632 0.027777
2003-09-22 07:06:44 51°19.39 2°47.97 32.007599 0.763637 4.301021 0.027777
2003-09-22 07:06:48 51°19.4 2°47.95 30.987739 0.860529 4.889051 0.061486
2003-09-22 07:06:54 51°19.41 2°47.92 31.047275 0.793943 4.484454 -0.005933
2003-09-22 07:06:58 51°19.42 2°47.9 31.700547 0.8022 4.534617 0.027777
2003-09-22 07:07:04 51°19.43 2°47.87 30.704149 0.796033 4.497379 -0.005933
2003-09-22 07:07:08 51°19.44 2°47.85 30.704149 0.796033 4.497379 -0.005933
2003-09-22 07:07:14 51°19.45 2°47.82 30.161249 0.782865 4.417789 0.027777
2003-09-22 07:07:18 51°19.46 2°47.8 30.988436 0.835335 4.736269 0.061486
2003-09-22 07:07:24 51°19.47 2°47.77 30.651866 0.782134 4.413623 0.027777
2003-09-22 07:07:28 51°19.48 2°47.75 30.014774 0.844952 4.795099 0.027777
2003-09-22 07:07:34 51°19.49 2°47.72 30.791743 0.769802 4.339395 0.027777
2003-09-22 07:07:38 51°19.5 2°47.7 30.791743 0.769802 4.339395 0.027777
2003-09-22 07:07:44 51°19.51 2°47.68 30.397459 0.873076 4.966944 0.061486
2003-09-22 07:07:48 51°19.52 2°47.66 30.427324 0.811502 4.592186 0.027777
2003-09-22 07:07:54 51°19.53 2°47.63 31.761911 0.774923 4.370661 0.027777
2003-09-22 07:07:58 51°19.54 2°47.61 31.571624 0.817042 4.626095 0.027777
2003-09-22 07:08:04 51°19.56 2°47.58 30.884294 0.845371 4.798563 0.027777
2003-09-22 07:08:08 51°19.56 2°47.56 30.884294 0.845371 4.798563 0.027777
2003-09-22 07:08:14 51°19.58 2°47.53 30.333689 0.803559 4.544458 -0.005933
2003-09-22 07:08:18 51°19.58 2°47.51 30.311765 0.808576 4.57503 0.027777
2003-09-22 07:08:24 51°19.6 2°47.48 31.058968 0.867325 4.932912 0.027777
2003-09-22 07:08:28 51°19.6 2°47.46 30.718412 0.809203 4.579173 0.027777
2003-09-22 07:08:34 51°19.62 2°47.43 31.004038 0.75789 4.268727 -0.005933
2003-09-22 07:08:38 51°19.63 2°47.42 31.004038 0.75789 4.268727 -0.005933
2003-09-22 07:08:44 51°19.64 2°47.39 30.976872 0.850911 4.833183 0.027777
2003-09-22 07:08:48 51°19.65 2°47.37 31.091845 0.803872 4.547095 0.027777
2003-09-22 07:08:54 51°19.66 2°47.34 29.808043 0.83199 4.718139 0.061486
2003-09-22 07:08:58 51°19.67 2°47.32 29.975322 0.802409 4.538553 0.027777
2003-09-22 07:09:04 51°19.68 2°47.29 30.379626 0.813488 4.605868 0.027777
2003-09-22 07:09:10 51°19.69 2°47.26 30.379626 0.813488 4.605868 0.027777
2003-09-22 07:09:14 51°19.7 2°47.24 31.182435 0.811816 4.595847 0.027777
2003-09-22 07:09:18 51°19.71 2°47.22 31.120222 0.822896 4.663443 -0.005933
2003-09-22 07:09:24 51°19.72 2°47.19 30.55581 0.818924 4.639435 0.027777
2003-09-22 07:09:28 51°19.73 2°47.17 30.47054 0.86032 4.89166 0.027777
2003-09-22 07:09:34 51°19.74 2°47.15 29.721714 0.799587 4.522236 0.027777
2003-09-22 07:09:38 51°19.75 2°47.13 29.721714 0.799587 4.522236 0.027777
2003-09-22 07:09:44 51°19.76 2°47.1 30.156672 0.804499 4.552172 0.027777
2003-09-22 07:09:48 51°19.77 2°47.08 30.605009 0.835962 4.743574 0.027777
2003-09-22 07:09:54 51°19.79 2°47.05 30.818906 0.779207 4.399158 0.027777
2003-09-22 07:09:58 51°19.8 2°47.03 31.816714 0.761129 4.289984 0.027777
2003-09-22 07:10:04 51°19.81 2°47 31.816714 0.761129 4.289984 0.027777
2003-09-22 07:10:08 51°19.82 2°46.98 31.050199 0.81976 4.645474 0.027777
2003-09-22 07:10:14 51°19.83 2°46.95 30.731867 0.790494 4.467969 0.027777
2003-09-22 07:10:18 51°19.84 2°46.94 30.335867 0.845266 4.801034 -0.005933
2003-09-22 07:10:24 51°19.85 2°46.91 31.110869 0.749844 4.222427 0.027777
2003-09-22 07:10:28 51°19.86 2°46.89 30.131561 0.813802 4.609671 0.027777
2003-09-22 07:10:34 51°19.87 2°46.86 30.131561 0.813802 4.609671 0.027777
2003-09-22 07:10:38 51°19.88 2°46.84 31.198831 0.827913 4.695686 0.027777
2003-09-22 07:10:44 51°19.89 2°46.81 30.277987 0.823941 4.671656 0.027777
2003-09-22 07:10:48 51°19.9 2°46.79 31.393267 0.831467 4.717597 0.027777
2003-09-22 07:10:54 51°19.91 2°46.76 30.424868 0.862098 4.904533 0.027777
2003-09-22 07:10:58 51°19.92 2°46.74 30.166918 0.824986 4.678497 -0.005933
2003-09-22 07:11:04 51°19.93 2°46.72 30.427605 0.83753 4.755013 0.061486
2003-09-22 07:11:08 51°19.94 2°46.7 30.427605 0.83753 4.755013 0.061486
2003-09-22 07:11:14 51°19.96 2°46.67 30.687367 0.783074 4.424322 -0.005933
2003-09-22 07:11:18 51°19.96 2°46.65 31.344921 0.821641 4.65856 0.027777
2003-09-22 07:11:24 51°19.98 2°46.62 31.996187 0.769698 4.343489 0.027777
2003-09-22 07:11:28 51°19.98 2°46.6 30.11437 0.824045 4.67353 0.061486
2003-09-22 07:11:34 51°20 2°46.57 30.975478 0.80011 4.528138 -0.005933
2003-09-22 07:11:38 51°20 2°46.55 30.975478 0.80011 4.528138 -0.005933
2003-09-22 07:11:44 51°20.01 2°46.52 31.149945 0.777535 4.39143 0.061486
2003-09-22 07:11:48 51°20.02 2°46.5 30.580361 0.82854 4.701164 0.027777
2003-09-22 07:11:54 51°20.03 2°46.47 30.408796 0.860321 4.895119 -0.005933
2003-09-22 07:11:58 51°20.04 2°46.45 30.432061 0.762069 4.298131 0.027777
2003-09-22 07:12:04 51°20.05 2°46.42 30.812273 0.838576 4.762715 0.061486
2003-09-22 07:12:08 51°20.06 2°46.4 30.812273 0.838576 4.762715 0.061486
2003-09-22 07:12:14 51°20.07 2°46.37 30.527187 0.798646 4.519923 0.027777
2003-09-22 07:12:18 51°20.07 2°46.35 30.442937 0.761025 4.292258 0.027777
2003-09-22 07:12:24 51°20.08 2°46.32 30.810248 0.801887 4.539925 0.027777
2003-09-22 07:12:28 51°20.09 2°46.3 30.358452 0.79572 4.502696 0.027777
2003-09-22 07:12:34 51°20.1 2°46.27 30.697926 0.823732 4.672999 0.027777
2003-09-22 07:12:38 51°20.1 2°46.25 30.697926 0.823732 4.672999 0.027777
2003-09-22 07:12:44 51°20.11 2°46.22 30.331511 0.751307 4.234056 0.027777
2003-09-22 07:12:48 51°20.11 2°46.2 30.50623 0.799796 4.527768 -0.005933
2003-09-22 07:12:54 51°20.12 2°46.16 30.621809 0.8276 4.696959 -0.005933
2003-09-22 07:12:58 51°20.13 2°46.14 30.161496 0.831885 4.723203 0.027777
2003-09-22 07:13:04 51°20.14 2°46.11 30.73316 0.780566 4.411535 0.027777
2003-09-22 07:13:08 51°20.14 2°46.09 30.73316 0.780566 4.411535 0.027777
2003-09-22 07:13:14 51°20.15 2°46.06 30.396652 0.88761 5.063923 0.027777
2003-09-22 07:13:18 51°20.16 2°46.04 30.208487 0.725604 4.07976 0.027777
2003-09-22 07:13:24 51°20.16 2°46.01 30.256644 0.795302 4.501286 0.027777
2003-09-22 07:13:28 51°20.17 2°45.98 31.210987 0.763428 4.308308 0.027777
2003-09-22 07:13:34 51°20.17 2°45.95 31.210987 0.763428 4.308308 0.027777
2003-09-22 07:13:38 51°20.18 2°45.93 31.593915 0.782238 4.422318 0.027777
2003-09-22 07:13:44 51°20.18 2°45.9 30.51331 0.804709 4.558808 0.027777
2003-09-22 07:13:48 51°20.19 2°45.88 30.683975 0.79363 4.491668 0.027777
2003-09-22 07:13:54 51°20.19 2°45.84 30.544811 0.776804 4.389716 -0.005933
2003-09-22 07:13:58 51°20.2 2°45.82 30.887677 0.817147 4.634775 0.027777
2003-09-22 07:14:04 51°20.2 2°45.79 31.059943 0.782761 4.426137 0.027777
2003-09-22 07:14:08 51°20.21 2°45.77 31.059943 0.782761 4.426137 0.027777
2003-09-22 07:14:14 51°20.21 2°45.74 30.978021 0.871821 4.968712 0.027777
2003-09-22 07:14:18 51°20.22 2°45.71 31.37868 0.823418 4.673431 0.027777
2003-09-22 07:14:24 51°20.22 2°45.68 31.803792 0.778372 4.399925 0.027777
2003-09-22 07:14:28 51°20.23 2°45.66 30.494206 0.791749 4.481111 0.061486
2003-09-22 07:14:34 51°20.23 2°45.63 30.692507 0.815788 4.627326 0.027777
2003-09-22 07:14:38 51°20.24 2°45.6 30.692507 0.815788 4.627326 0.027777
2003-09-22 07:14:44 51°20.25 2°45.57 30.728198 0.820387 4.655456 0.027777
2003-09-22 07:14:48 51°20.25 2°45.55 31.072712 0.806381 4.570385 0.027777
2003-09-22 07:14:54 51°20.26 2°45.52 30.987008 0.821328 4.661458 0.061486
2003-09-22 07:14:58 51°20.26 2°45.49 30.932096 0.798856 4.524924 0.027777
2003-09-22 07:15:04 51°20.26 2°45.46 31.241785 0.779312 4.406534 0.027777
2003-09-22 07:15:08 51°20.27 2°45.44 31.241785 0.779312 4.406534 0.027777
2003-09-22 07:15:14 51°20.27 2°45.4 30.642805 0.844116 4.800953 0.027777
2003-09-22 07:15:18 51°20.28 2°45.38 31.585207 0.790495 4.474688 0.027777
2003-09-22 07:15:24 51°20.28 2°45.35 30.273487 0.812234 4.606929 0.061486
2003-09-22 07:15:28 51°20.28 2°45.33 29.697699 0.789136 4.466771 0.027777
2003-09-22 07:15:34 51°20.29 2°45.29 30.536122 0.787673 4.457958 -0.005933
2003-09-22 07:15:38 51°20.29 2°45.27 30.536122 0.787673 4.457958 -0.005933
2003-09-22 07:15:44 51°20.29 2°45.24 30.625764 0.821119 4.661285 0.027777
2003-09-22 07:15:48 51°20.3 2°45.21 30.76733 0.784642 4.439701 0.061486
2003-09-22 07:15:54 51°20.3 2°45.18 31.089167 0.804082 4.557887 0.027777
2003-09-22 07:15:58 51°20.3 2°45.16 31.567718 0.782552 4.427219 0.027777
2003-09-22 07:16:04 51°20.31 2°45.12 31.029176 0.81861 4.64642 0.027777
2003-09-22 07:16:08 51°20.31 2°45.1 31.029176 0.81861 4.64642 0.027777
2003-09-22 07:16:14 51°20.31 2°45.06 30.089633 0.770325 4.353306 -0.005933
2003-09-22 07:16:18 51°20.31 2°45.04 30.780254 0.810144 4.595228 0.027777
2003-09-22 07:16:24 51°20.32 2°45.01 29.643513 0.809203 4.589573 0.027777
2003-09-22 07:16:28 51°20.32 2°44.98 31.490525 0.820701 4.65977 0.027777
2003-09-22 07:16:34 51°20.32 2°44.95 30.378187 0.707531 3.97481 0.061486
2003-09-22 07:16:38 51°20.33 2°44.92 30.378187 0.707531 3.97481 0.061486
2003-09-22 07:16:44 51°20.33 2°44.89 30.523157 0.846312 4.816204 0.061486
2003-09-22 07:16:48 51°20.33 2°44.87 30.178043 0.792271 4.487193 -0.005933
2003-09-22 07:16:54 51°20.34 2°44.83 29.601845 0.84213 4.79102 -0.005933
2003-09-22 07:16:58 51°20.34 2°44.81 30.956839 0.772415 4.366932 0.061486
2003-09-22 07:17:04 51°20.34 2°44.77 29.807406 0.819551 4.653453 -0.005933
2003-09-22 07:17:08 51°20.35 2°44.75 29.807406 0.819551 4.653453 -0.005933
2003-09-22 07:17:14 51°20.35 2°44.71 31.58531 0.803663 4.556891 0.027777
2003-09-22 07:17:18 51°20.35 2°44.69 30.818906 0.779835 4.412434 0.027777
2003-09-22 07:17:24 51°20.36 2°44.65 31.390357 0.808576 4.587044 -0.005933
2003-09-22 07:17:28 51°20.36 2°44.63 30.516674 0.784433 4.440463 0.061486
2003-09-22 07:17:34 51°20.36 2°44.59 31.470731 0.765309 4.324655 0.061486
2003-09-22 07:17:38 51°20.37 2°44.57 31.470731 0.765309 4.324655 0.061486
2003-09-22 07:17:44 51°20.37 2°44.54 30.566773 0.825405 4.690022 0.027777
2003-09-22 07:17:48 51°20.37 2°44.51 31.105757 0.766772 4.333899 0.027777
2003-09-22 07:17:54 51°20.38 2°44.48 31.027853 0.80126 4.543347 0.027777
2003-09-22 07:17:58 51°20.38 2°44.45 31.827635 0.760816 4.297957 0.027777
2003-09-22 07:18:04 51°20.38 2°44.42 30.939206 0.801051 4.542143 0.027777
2003-09-22 07:18:08 51°20.38 2°44.39 30.939206 0.801051 4.542143 0.027777
2003-09-22 07:18:14 51°20.39 2°44.36 31.139899 0.771475 4.362778 0.027777
2003-09-22 07:18:18 51°20.39 2°44.33 32.244144 0.791958 4.487275 0.061486
2003-09-22 07:18:24 51°20.39 2°44.3 32.36466 0.823523 4.67945 0.027777
2003-09-22 07:18:28 51°20.39 2°44.27 31.930228 0.804918 4.566204 0.027777
2003-09-22 07:18:34 51°20.4 2°44.24 30.486283 0.775864 4.389842 0.027777
2003-09-22 07:18:38 51°20.4 2°44.21 30.486283 0.775864 4.389842 0.027777
2003-09-22 07:18:44 51°20.4 2°44.18 31.94017 0.817565 4.643481 0.027777
2003-09-22 07:18:48 51°20.4 2°44.16 31.608565 0.796452 4.515118 0.027777
2003-09-22 07:18:54 51°20.41 2°44.12 31.321378 0.8022 4.550142 0.027777
2003-09-22 07:18:58 51°20.41 2°44.1 31.066101 0.795929 4.512141 0.027777
2003-09-22 07:19:04 51°20.41 2°44.06 30.524909 0.842026 4.793212 0.027777
2003-09-22 07:19:10 51°20.42 2°44.03 30.524909 0.842026 4.793212 0.027777
2003-09-22 07:19:14 51°20.42 2°44 31.155749 0.801887 4.548705 0.027777
2003-09-22 07:19:18 51°20.42 2°43.98 32.539449 0.771161 4.362165 0.027777
2003-09-22 07:19:24 51°20.42 2°43.94 32.259527 0.799692 4.535555 0.027777
2003-09-22 07:19:28 51°20.42 2°43.92 33.314339 0.741799 4.18469 -0.005933
2003-09-22 07:19:34 51°20.43 2°43.88 32.787948 0.827495 4.70513 0.027777
2003-09-22 07:19:38 51°20.43 2°43.86 32.787948 0.827495 4.70513 0.027777
2003-09-22 07:19:44 51°20.43 2°43.82 32.822202 0.783493 4.437506 0.027777
2003-09-22 07:19:48 51°20.44 2°43.8 33.401578 0.790704 4.48131 0.027777
2003-09-22 07:19:54 51°20.44 2°43.76 32.240272 0.774192 4.381254 0.027777
2003-09-22 07:19:58 51°20.44 2°43.74 32.9335 0.840876 4.78746 0.027777
2003-09-22 07:20:04 51°20.44 2°43.7 32.688705 0.792167 4.490666 0.061486
2003-09-22 07:20:08 51°20.45 2°43.68 32.688705 0.792167 4.490666 0.061486
2003-09-22 07:20:14 51°20.45 2°43.64 31.964281 0.851853 4.85486 0.027777
2003-09-22 07:20:18 51°20.45 2°43.62 30.51331 0.808785 4.592043 0.027777
2003-09-22 07:20:24 51°20.45 2°43.58 30.682051 0.783806 4.440262 -0.005933
2003-09-22 07:20:28 51°20.46 2°43.56 31.225432 0.828541 4.712761 0.027777
2003-09-22 07:20:34 51°20.46 2°43.53 31.624145 0.801364 4.547272 0.027777
2003-09-22 07:20:38 51°20.46 2°43.5 31.624145 0.801364 4.547272 0.027777
2003-09-22 07:20:44 51°20.47 2°43.47 32.048831 0.788823 4.471133 0.027777
2003-09-22 07:20:48 51°20.47 2°43.44 33.422571 0.83868 4.775105 0.027777
2003-09-22 07:20:54 51°20.47 2°43.41 32.668365 0.800528 4.542586 0.027777
2003-09-22 07:20:58 51°20.47 2°43.38 31.8816 0.812025 4.612802 0.027777
2003-09-22 07:21:04 51°20.48 2°43.35 31.8816 0.812025 4.612802 0.027777
2003-09-22 07:21:08 51°20.48 2°43.32 31.206437 0.822896 4.679081 0.027777
2003-09-22 07:21:14 51°20.48 2°43.29 32.701003 0.810248 4.60218 0.027777
2003-09-22 07:21:18 51°20.48 2°43.26 32.811319 0.81098 4.606705 -0.005933
2003-09-22 07:21:24 51°20.49 2°43.23 31.268024 0.779103 4.412946 0.027777
2003-09-22 07:21:28 51°20.49 2°43.2 31.891858 0.772624 4.373684 0.027777
2003-09-22 07:21:34 51°20.49 2°43.17 31.891858 0.772624 4.373684 0.027777
2003-09-22 07:21:38 51°20.49 2°43.15 30.091184 0.81537 4.633803 0.027777
2003-09-22 07:21:44 51°20.5 2°43.11 29.722352 0.79687 4.521265 0.027777
2003-09-22 07:21:48 51°20.5 2°43.09 30.367056 0.815893 4.637264 0.027777
2003-09-22 07:21:54 51°20.5 2°43.05 30.963076 0.794466 4.506974 -0.005933
2003-09-22 07:21:58 51°20.5 2°43.03 30.819709 0.83429 4.749828 -0.005933
2003-09-22 07:22:04 51°20.51 2°42.99 30.758702 0.786941 4.461284 -0.005933
2003-09-22 07:22:08 51°20.51 2°42.97 30.758702 0.786941 4.461284 -0.005933
2003-09-22 07:22:14 51°20.51 2°42.94 30.853491 0.793839 4.503293 0.061486
2003-09-22 07:22:18 51°20.51 2°42.91 30.650887 0.800215 4.542222 0.027777
2003-09-22 07:22:24 51°20.52 2°42.88 31.504088 0.803977 4.565267 -0.005933
2003-09-22 07:22:28 51°20.52 2°42.85 31.563016 0.784538 4.447201 0.027777
2003-09-22 07:22:34 51°20.52 2°42.82 31.251018 0.788614 4.471977 0.027777
2003-09-22 07:22:38 51°20.52 2°42.8 31.251018 0.788614 4.471977 0.027777
2003-09-22 07:22:44 51°20.53 2°42.76 31.111668 0.81098 4.608408 0.061486
2003-09-22 07:22:48 51°20.53 2°42.74 31.083566 0.821433 4.672226 0.027777
2003-09-22 07:22:54 51°20.53 2°42.7 30.829063 0.749008 4.232148 0.027777
2003-09-22 07:22:58 51°20.53 2°42.68 30.429219 0.809412 4.599125 0.027777
2003-09-22 07:23:04 51°20.54 2°42.64 30.373341 0.808576 4.594232 0.027777
2003-09-22 07:23:08 51°20.54 2°42.62 30.373341 0.808576 4.594232 0.027777
2003-09-22 07:23:14 51°20.54 2°42.59 29.481182 0.800946 4.547886 -0.005933
2003-09-22 07:23:18 51°20.55 2°42.56 30.200569 0.784433 4.447487 -0.005933
2003-09-22 07:23:24 51°20.55 2°42.53 30.403953 0.796661 4.521998 0.027777
2003-09-22 07:23:28 51°20.55 2°42.51 29.715446 0.811503 4.612481 0.027777
2003-09-22 07:23:34 51°20.55 2°42.47 29.888619 0.784015 4.445274 0.027777
2003-09-22 07:23:38 51°20.56 2°42.45 29.888619 0.784015 4.445274 0.027777
2003-09-22 07:23:44 51°20.56 2°42.41 29.162997 0.8045 4.570138 0.027777
2003-09-22 07:23:48 51°20.56 2°42.39 30.535141 0.795616 4.516171 0.027777
2003-09-22 07:23:54 51°20.57 2°42.35 29.924372 0.802514 4.558243 0.027777
2003-09-22 07:23:58 51°20.57 2°42.33 28.582667 0.87339 4.991863 -0.005933
2003-09-22 07:24:04 51°20.57 2°42.3 29.984428 0.837008 4.769045 0.027777
2003-09-22 07:24:10 51°20.57 2°42.26 29.984428 0.837008 4.769045 0.027777
2003-09-22 07:24:14 51°20.58 2°42.24 31.388971 0.79572 4.517275 0.027777
2003-09-22 07:24:18 51°20.58 2°42.22 29.518832 0.78715 4.465128 0.027777
2003-09-22 07:24:24 51°20.58 2°42.18 28.966224 0.782239 4.435394 0.061486
2003-09-22 07:24:28 51°20.58 2°42.16 30.217143 0.839726 4.786092 0.027777
2003-09-22 07:24:34 51°20.59 2°42.12 29.902117 0.742635 4.195439 0.061486
2003-09-22 07:24:38 51°20.59 2°42.1 29.902117 0.742635 4.195439 0.061486
2003-09-22 07:24:44 51°20.59 2°42.07 31.028166 0.80983 4.603783 0.027777
2003-09-22 07:24:48 51°20.6 2°42.04 29.875119 0.82415 4.69138 0.027777
2003-09-22 07:24:54 51°20.6 2°42.01 29.412866 0.796766 4.524441 0.027777
2003-09-22 07:24:58 51°20.6 2°41.99 30.51338 0.781507 4.431668 -0.005933
2003-09-22 07:25:04 51°20.6 2°41.95 30.971855 0.806277 4.582524 0.061486
2003-09-22 07:25:10 51°20.61 2°41.92 30.971855 0.806277 4.582524 0.061486
2003-09-22 07:25:14 51°20.61 2°41.89 29.592125 0.778581 4.414013 0.027777
2003-09-22 07:25:18 51°20.61 2°41.87 30.746893 0.808263 4.594904 0.027777
2003-09-22 07:25:24 51°20.62 2°41.84 30.116695 0.801364 4.552923 0.027777
2003-09-22 07:25:28 51°20.62 2°41.81 30.196803 0.76416 4.326825 0.027777
2003-09-22 07:25:34 51°20.62 2°41.78 30.090408 0.797706 4.530907 0.027777
2003-09-22 07:25:38 51°20.62 2°41.75 30.090408 0.797706 4.530907 0.027777
2003-09-22 07:25:44 51°20.63 2°41.72 29.629295 0.838158 4.777844 0.027777
2003-09-22 07:25:48 51°20.63 2°41.7 29.135198 0.804291 4.571231 0.027777
2003-09-22 07:25:54 51°20.63 2°41.66 29.980475 0.785583 4.457375 0.027777
2003-09-22 07:25:58 51°20.63 2°41.64 29.518086 0.777222 4.40667 0.027777
2003-09-22 07:26:04 51°20.64 2°41.61 30.27085 0.830109 4.729252 0.027777
2003-09-22 07:26:08 51°20.64 2°41.58 30.27085 0.830109 4.729252 0.027777
2003-09-22 07:26:14 51°20.64 2°41.55 30.216298 0.761861 4.313643 0.027777
2003-09-22 07:26:18 51°20.65 2°41.53 30.039077 0.81213 4.619653 0.027777
2003-09-22 07:26:24 51°20.65 2°41.49 29.681118 0.772206 4.37658 0.027777
2003-09-22 07:26:28 51°20.65 2°41.47 29.204408 0.789241 4.480294 0.027777
2003-09-22 07:26:34 51°20.66 2°41.43 29.265289 0.803559 4.567718 0.027777
2003-09-22 07:26:38 51°20.66 2°41.41 29.265289 0.803559 4.567718 0.027777
2003-09-22 07:26:44 51°20.66 2°41.38 30.906856 0.761652 4.312885 -0.005933
2003-09-22 07:26:48 51°20.66 2°41.35 29.903247 0.800946 4.551993 -0.005933
2003-09-22 07:26:54 51°20.67 2°41.32 30.767435 0.818192 4.657346 -0.005933
2003-09-22 07:26:58 51°20.67 2°41.3 30.165791 0.803141 4.565575 0.027777
2003-09-22 07:27:04 51°20.67 2°41.26 29.355556 0.779103 4.419346 0.027777
2003-09-22 07:27:08 51°20.67 2°41.24 29.355556 0.779103 4.419346 0.027777
2003-09-22 07:27:14 51°20.68 2°41.2 30.197929 0.808681 4.599631 0.027777
2003-09-22 07:27:18 51°20.68 2°41.18 30.400478 0.774296 4.390318 0.027777
2003-09-22 07:27:24 51°20.68 2°41.15 30.258438 0.799483 4.543815 0.027777
2003-09-22 07:27:28 51°20.69 2°41.12 29.22138 0.809308 4.603798 -0.005933
2003-09-22 07:27:34 51°20.69 2°41.09 30.836357 0.786733 4.466352 0.027777
2003-09-22 07:27:38 51°20.69 2°41.07 30.836357 0.786733 4.466352 0.027777
2003-09-22 07:27:44 51°20.69 2°41.03 30.405953 0.781507 4.434621 -0.005933
2003-09-22 07:27:48 51°20.7 2°41.01 30.638606 0.780776 4.430302 0.027777
2003-09-22 07:27:54 51°20.7 2°40.98 30.122755 0.799379 4.543716 0.027777
2003-09-22 07:27:58 51°20.7 2°40.95 29.802736 0.781194 4.433108 0.027777
2003-09-22 07:28:04 51°20.71 2°40.92 30.924183 0.833977 4.755085 0.027777
2003-09-22 07:28:08 51°20.71 2°40.89 30.924183 0.833977 4.755085 0.027777
2003-09-22 07:28:14 51°20.71 2°40.86 29.923666 0.808054 4.596826 0.027777
2003-09-22 07:28:18 51°20.71 2°40.84 29.550465 0.780358 4.428218 0.027777
2003-09-22 07:28:24 51°20.72 2°40.8 30.130399 0.831572 4.740867 0.027777
2003-09-22 07:28:30 51°20.72 2°40.77 28.939283 0.809203 4.604252 -0.005933
2003-09-22 07:28:34 51°20.72 2°40.75 28.939283 0.809203 4.604252 -0.005933
2003-09-22 07:28:38 51°20.72 2°40.72 30.075287 0.793421 4.508148 -0.005933
2003-09-22 07:28:44 51°20.73 2°40.69 29.608372 0.77764 4.412083 0.027777
2003-09-22 07:28:48 51°20.73 2°40.66 29.760767 0.814221 4.635155 0.027777
2003-09-22 07:28:54 51°20.73 2°40.63 29.407318 0.813071 4.628202 -0.005933
2003-09-22 07:28:58 51°20.73 2°40.61 29.415319 0.723515 4.08421 0.027777
2003-09-22 07:29:04 51°20.74 2°40.57 29.383736 0.810876 4.615074 -0.005933
2003-09-22 07:29:08 51°20.74 2°40.55 29.383736 0.810876 4.615074 -0.005933
2003-09-22 07:29:14 51°20.74 2°40.51 29.819291 0.820492 4.673883 -0.005933
2003-09-22 07:29:18 51°20.74 2°40.49 29.069997 0.763951 4.329528 0.027777
2003-09-22 07:29:24 51°20.75 2°40.46 30.135189 0.761025 4.311825 -0.005933
2003-09-22 07:29:28 51°20.75 2°40.43 28.891817 0.805023 4.579759 0.027777
2003-09-22 07:29:34 51°20.75 2°40.4 30.027014 0.7767 4.407212 0.027777
2003-09-22 07:29:38 51°20.75 2°40.37 30.027014 0.7767 4.407212 0.027777
2003-09-22 07:29:44 51°20.76 2°40.34 29.392629 0.787673 4.474065 -0.005933
2003-09-22 07:29:48 51°20.76 2°40.32 29.390531 0.788927 4.481902 0.027777
2003-09-22 07:29:54 51°20.76 2°40.28 29.657692 0.775864 4.402453 -0.005933
2003-09-22 07:29:58 51°20.76 2°40.26 29.396471 0.7767 4.407669 0.027777
2003-09-22 07:30:02 51°20.77 2°40.24 29.282531 0.764578 4.334043 0.027777
2003-09-22 07:30:08 51°20.77 2°40.2 29.282531 0.764578 4.334043 0.027777
2003-09-22 07:30:14 51°20.77 2°40.17 29.748944 0.819133 4.666616 0.027777
2003-09-22 07:30:18 51°20.77 2°40.14 28.847511 0.777641 4.413718 0.027777
2003-09-22 07:30:24 51°20.78 2°40.11 28.608119 0.74253 4.200522 -0.005933
2003-09-22 07:30:28 51°20.78 2°40.09 28.317788 0.752352 4.260202 0.027777
2003-09-22 07:30:34 51°20.78 2°40.05 28.554474 0.811712 4.621549 0.027777
2003-09-22 07:30:38 51°20.78 2°40.03 28.554474 0.811712 4.621549 0.027777
2003-09-22 07:30:42 51°20.78 2°40 29.464908 0.817356 4.656101 0.027777
2003-09-22 07:30:48 51°20.79 2°39.97 29.146976 0.780985 4.434331 0.027777
2003-09-22 07:30:54 51°20.79 2°39.93 28.794502 0.836695 4.774618 0.027777
2003-09-22 07:30:58 51°20.79 2°39.91 29.202055 0.768131 4.356341 -0.005933
2003-09-22 07:31:04 51°20.79 2°39.88 28.619548 0.774714 4.396373 0.027777
2003-09-22 07:31:10 51°20.8 2°39.84 28.619548 0.774714 4.396373 0.027777
2003-09-22 07:31:14 51°20.8 2°39.82 27.970883 0.851121 4.863253 0.027777
2003-09-22 07:31:18 51°20.8 2°39.8 27.823454 0.782761 4.445608 0.027777
2003-09-22 07:31:22 51°20.8 2°39.77 29.79796 0.794153 4.51508 -0.005933
2003-09-22 07:31:28 51°20.81 2°39.74 28.745259 0.733022 4.143797 -0.005933
2003-09-22 07:31:34 51°20.81 2°39.7 29.769439 0.76207 4.320025 -0.005933
2003-09-22 07:31:38 51°20.81 2°39.68 29.769439 0.76207 4.320025 -0.005933
2003-09-22 07:31:44 51°20.81 2°39.64 30.603504 0.804814 4.580384 0.027777
2003-09-22 07:31:48 51°20.81 2°39.62 29.942383 0.74253 4.20158 -0.005933
2003-09-22 07:31:54 51°20.82 2°39.59 30.147023 0.809726 4.610515 0.027777
2003-09-22 07:31:58 51°20.82 2°39.56 29.307819 0.757786 4.294323 -0.005933
2003-09-22 07:32:02 51°20.82 2°39.54 29.307819 0.757786 4.294323 -0.005933
2003-09-22 07:32:08 51°20.82 2°39.51 30.379696 0.809517 4.609375 0.027777
2003-09-22 07:32:14 51°20.83 2°39.47 29.921087 0.792585 4.506191 0.027777
2003-09-22 07:32:18 51°20.83 2°39.45 29.950257 0.816834 4.654287 0.027777
2003-09-22 07:32:24 51°20.83 2°39.41 29.224873 0.768862 4.361951 0.027777
2003-09-22 07:32:30 51°20.83 2°39.38 28.905459 0.811607 4.622555 -0.005933
2003-09-22 07:32:34 51°20.84 2°39.36 28.905459 0.811607 4.622555 -0.005933
2003-09-22 07:32:38 51°20.84 2°39.33 29.637876 0.808367 4.602899 -0.005933
2003-09-22 07:32:42 51°20.84 2°39.31 29.808573 0.805441 4.58496 -0.005933
2003-09-22 07:32:48 51°20.84 2°39.28 29.901304 0.777641 4.41555 0.027777
2003-09-22 07:32:54 51°20.85 2°39.24 29.024723 0.812444 4.628007 -0.005933
2003-09-22 07:33:00 51°20.85 2°39.21 30.647248 0.769176 4.364245 0.061486
2003-09-22 07:33:04 51°20.85 2°39.18 29.610535 0.767399 4.353508 0.027777
2003-09-22 07:33:08 51°20.85 2°39.16 29.610535 0.767399 4.353508 0.027777
2003-09-22 07:33:14 51°20.85 2°39.13 30.477237 0.769176 4.364375 0.027777
2003-09-22 07:33:18 51°20.86 2°39.1 29.815117 0.808367 4.603309 0.027777
2003-09-22 07:33:24 51°20.86 2°39.07 29.241698 0.796975 4.5339 0.027777
2003-09-22 07:33:28 51°20.86 2°39.05 30.805011 0.80659 4.592661 0.027777
2003-09-22 07:33:34 51°20.86 2°39.01 29.502353 0.758831 4.301816 -0.005933
2003-09-22 07:33:38 51°20.87 2°38.99 29.502353 0.758831 4.301816 -0.005933
2003-09-22 07:33:44 51°20.87 2°38.96 29.447422 0.820597 4.678404 0.027777
2003-09-22 07:33:48 51°20.87 2°38.93 29.331923 0.808367 4.603718 0.027777
2003-09-22 07:33:54 51°20.88 2°38.9 31.17566 0.735008 4.15748 0.027777
2003-09-22 07:33:58 51°20.88 2°38.88 29.040949 0.803455 4.573922 0.027777
2003-09-22 07:34:04 51°20.88 2°38.84 30.866783 0.784747 4.459881 0.061486
2003-09-22 07:34:08 51°20.88 2°38.82 30.866783 0.784747 4.459881 0.061486
2003-09-22 07:34:14 51°20.88 2°38.78 30.206305 0.851958 4.871056 0.027777
2003-09-22 07:34:18 51°20.89 2°38.76 28.752255 0.747859 4.235711 -0.005933
2003-09-22 07:34:24 51°20.89 2°38.73 30.322095 0.779104 4.425768 0.027777
2003-09-22 07:34:28 51°20.89 2°38.7 30.409112 0.803455 4.574261 -0.005933
2003-09-22 07:34:34 51°20.89 2°38.67 29.835772 0.833768 4.7598 -0.005933
2003-09-22 07:34:38 51°20.9 2°38.65 29.835772 0.833768 4.7598 -0.005933
2003-09-22 07:34:44 51°20.9 2°38.61 30.092241 0.80889 4.607594 0.027777
2003-09-22 07:34:48 51°20.9 2°38.59 30.725891 0.745143 4.219542 0.027777
2003-09-22 07:34:54 51°20.9 2°38.56 30.32459 0.75486 4.278715 -0.005933
2003-09-22 07:34:58 51°20.91 2°38.53 29.728301 0.778372 4.421707 0.027777
2003-09-22 07:35:04 51°20.91 2°38.5 29.697416 0.763324 4.330275 0.027777
2003-09-22 07:35:08 51°20.91 2°38.47 29.697416 0.763324 4.330275 0.027777
2003-09-22 07:35:14 51°20.91 2°38.44 30.648473 0.780985 4.437751 -0.005933
2003-09-22 07:35:18 51°20.91 2°38.42 30.3653 0.815057 4.645769 -0.005933
2003-09-22 07:35:24 51°20.92 2°38.38 29.350752 0.779626 4.429607 0.027777
2003-09-22 07:35:28 51°20.92 2°38.36 29.206048 0.799692 4.552101 0.027777
2003-09-22 07:35:34 51°20.92 2°38.33 28.887485 0.780671 4.436171 -0.005933
2003-09-22 07:35:38 51°20.92 2°38.3 28.887485 0.780671 4.436171 -0.005933
2003-09-22 07:35:44 51°20.93 2°38.27 29.710027 0.785897 4.468079 0.027777
2003-09-22 07:35:50 51°20.93 2°38.24 30.14336 0.801678 4.564428 0.027777
2003-09-22 07:35:54 51°20.93 2°38.21 30.229245 0.778163 4.421156 0.027777
2003-09-22 07:35:58 51°20.93 2°38.19 30.141705 0.736052 4.165354 -0.005933
2003-09-22 07:36:04 51°20.94 2°38.16 30.141705 0.736052 4.165354 -0.005933
2003-09-22 07:36:08 51°20.94 2°38.13 29.827956 0.762279 4.324564 0.027777
2003-09-22 07:36:14 51°20.94 2°38.1 29.7998 0.791749 4.504166 -0.005933
2003-09-22 07:36:18 51°20.94 2°38.08 29.567821 0.804082 4.579449 0.027777
2003-09-22 07:36:24 51°20.94 2°38.04 29.284241 0.769071 4.36607 0.027777
2003-09-22 07:36:28 51°20.95 2°38.02 29.246545 0.795721 4.5286 0.027777
2003-09-22 07:36:34 51°20.95 2°37.98 29.924796 0.761443 4.319994 0.027777
2003-09-22 07:36:38 51°20.95 2°37.96 29.924796 0.761443 4.319994 0.027777
2003-09-22 07:36:44 51°20.95 2°37.93 31.406397 0.796348 4.532629 0.027777
2003-09-22 07:36:48 51°20.96 2°37.9 29.838954 0.766668 4.351899 0.027777
2003-09-22 07:36:54 51°20.96 2°37.87 29.664143 0.783493 4.45442 0.027777
2003-09-22 07:36:58 51°20.96 2°37.85 31.163637 0.778059 4.421372 -0.005933
2003-09-22 07:37:04 51°20.96 2°37.81 30.190011 0.814534 4.644089 0.027777
2003-09-22 07:37:08 51°20.97 2°37.79 30.190011 0.814534 4.644089 0.027777
2003-09-22 07:37:14 51°20.97 2°37.76 30.162552 0.76531 4.343893 -0.005933
2003-09-22 07:37:18 51°20.97 2°37.73 29.521886 0.788718 4.486547 -0.005933
2003-09-22 07:37:24 51°20.97 2°37.7 30.536367 0.816729 4.657724 -0.005933
2003-09-22 07:37:28 51°20.97 2°37.68 30.077473 0.764996 4.342179 0.027777
2003-09-22 07:37:34 51°20.98 2°37.64 29.992722 0.782343 4.447876 0.027777
2003-09-22 07:37:38 51°20.98 2°37.62 29.992722 0.782343 4.447876 0.027777
2003-09-22 07:37:44 51°20.98 2°37.58 30.052618 0.798752 4.548046 -0.005933
2003-09-22 07:37:50 51°20.98 2°37.55 28.996874 0.794989 4.525142 0.027777
2003-09-22 07:37:54 51°20.99 2°37.53 29.935709 0.817252 4.661337 0.027777
2003-09-22 07:37:58 51°20.99 2°37.5 30.083676 0.785165 4.465342 -0.005933
2003-09-22 07:38:04 51°20.99 2°37.47 30.203138 0.772938 4.390904 -0.005933
2003-09-22 07:38:10 51°20.99 2°37.44 30.203138 0.772938 4.390904 -0.005933
2003-09-22 07:38:14 51°21 2°37.41 29.76951 0.830841 4.744688 0.027777
2003-09-22 07:38:18 51°21 2°37.39 29.569169 0.761025 4.318478 0.027777
2003-09-22 07:38:24 51°21 2°37.36 30.092734 0.782134 4.44713 0.027777
2003-09-22 07:38:28 51°21 2°37.33 29.94143 0.771893 4.384802 0.027777
2003-09-22 07:38:34 51°21.01 2°37.3 31.012952 0.823628 4.700854 0.027777
2003-09-22 07:38:38 51°21.01 2°37.28 31.012952 0.823628 4.700854 0.027777
2003-09-22 07:38:44 51°21.01 2°37.24 30.040205 0.766773 4.353827 0.027777
2003-09-22 07:38:48 51°21.01 2°37.22 30.070951 0.792794 4.512417 0.027777
2003-09-22 07:38:54 51°21.02 2°37.18 30.532093 0.824987 4.709246 0.027777
2003-09-22 07:38:58 51°21.02 2°37.16 30.584283 0.776491 4.413134 0.027777
2003-09-22 07:39:04 51°21.02 2°37.13 31.188063 0.794049 4.520273 0.027777
2003-09-22 07:39:08 51°21.02 2°37.1 31.188063 0.794049 4.520273 0.027777
2003-09-22 07:39:14 51°21.03 2°37.07 29.758679 0.787464 4.480228 0.027777
2003-09-22 07:39:18 51°21.03 2°37.05 31.360589 0.785374 4.467412 0.027777
2003-09-22 07:39:24 51°21.03 2°37.01 30.593141 0.73856 4.182851 0.027777
2003-09-22 07:39:28 51°21.03 2°36.99 29.267533 0.762697 4.329481 0.027777
2003-09-22 07:39:34 51°21.04 2°36.95 30.542744 0.771057 4.380492 0.027777
2003-09-22 07:39:38 51°21.04 2°36.93 30.542744 0.771057 4.380492 0.027777
2003-09-22 07:39:44 51°21.04 2°36.9 30.542078 0.78945 4.492809 -0.005933
2003-09-22 07:39:48 51°21.04 2°36.87 29.506935 0.810667 4.62243 0.061486
2003-09-22 07:39:54 51°21.05 2°36.84 30.055897 0.758622 4.305143 0.027777
2003-09-22 07:39:58 51°21.05 2°36.82 29.59287 0.816625 4.65909 0.061486
2003-09-22 07:40:04 51°21.05 2°36.78 30.287408 0.77994 4.435004 0.027777
2003-09-22 07:40:08 51°21.05 2°36.76 30.287408 0.77994 4.435004 0.027777
2003-09-22 07:40:14 51°21.06 2°36.73 29.594396 0.768758 4.366948 0.027777
2003-09-22 07:40:18 51°21.06 2°36.7 30.607914 0.782761 4.452406 -0.005933
2003-09-22 07:40:24 51°21.06 2°36.67 30.781336 0.820806 4.684965 -0.005933
2003-09-22 07:40:28 51°21.06 2°36.65 30.955062 0.806382 4.596771 0.027777
2003-09-22 07:40:34 51°21.07 2°36.61 31.356534 0.802932 4.575754 -0.005933
2003-09-22 07:40:38 51°21.07 2°36.59 31.356534 0.802932 4.575754 -0.005933
2003-09-22 07:40:44 51°21.07 2°36.55 30.300062 0.748695 4.245253 0.027777
2003-09-22 07:40:48 51°21.08 2°36.53 29.517838 0.784016 4.460386 0.027777
2003-09-22 07:40:54 51°21.08 2°36.5 29.492017 0.779626 4.43362 0.027777
2003-09-22 07:40:58 51°21.08 2°36.48 29.889962 0.767818 4.361805 -0.005933
2003-09-22 07:41:04 51°21.08 2°36.44 30.04553 0.772729 4.391783 0.027777
2003-09-22 07:41:10 51°21.09 2°36.41 30.04553 0.772729 4.391783 0.027777
2003-09-22 07:41:14 51°21.09 2°36.38 29.670806 0.790286 4.498914 0.061486
2003-09-22 07:41:18 51°21.09 2°36.36 29.932283 0.767713 4.361363 -0.005933
2003-09-22 07:41:24 51°21.09 2°36.33 30.704848 0.782762 4.4532 -0.005933
2003-09-22 07:41:28 51°21.1 2°36.3 29.378507 0.781089 4.443002 0.027777
2003-09-22 07:41:34 51°21.1 2°36.27 30.284069 0.795512 4.53109 -0.005933
2003-09-22 07:41:38 51°21.1 2°36.25 30.284069 0.795512 4.53109 -0.005933
2003-09-22 07:41:44 51°21.1 2°36.21 31.142124 0.807531 4.604691 0.027777
2003-09-22 07:41:48 51°21.11 2°36.19 30.563831 0.780044 4.436827 0.027777
2003-09-22 07:41:54 51°21.11 2°36.16 29.294998 0.769803 4.374415 -0.005933
2003-09-22 07:41:58 51°21.11 2°36.13 31.745635 0.804291 4.585013 0.027777
2003-09-22 07:42:04 51°21.11 2°36.1 29.301409 0.800529 4.56208 -0.039642
2003-09-22 07:42:10 51°21.12 2°36.06 29.301409 0.800529 4.56208 -0.039642
2003-09-22 07:42:14 51°21.12 2°36.04 30.116695 0.789032 4.491993 0.027777
2003-09-22 07:42:18 51°21.12 2°36.02 30.711316 0.782448 4.451817 0.027777
2003-09-22 07:42:24 51°21.12 2°35.98 29.0071 0.829586 4.74024 0.027777
2003-09-22 07:42:28 51°21.13 2°35.96 28.366447 0.788091 4.486385 0.027777
2003-09-22 07:42:34 51°21.13 2°35.93 29.743633 0.783911 4.461073 -0.005933
2003-09-22 07:42:38 51°21.13 2°35.9 29.743633 0.783911 4.461073 -0.005933
2003-09-22 07:42:44 51°21.14 2°35.87 30.209753 0.757995 4.303247 -0.005933
2003-09-22 07:42:50 51°21.14 2°35.84 29.777154 0.785688 4.471981 -0.005933
2003-09-22 07:42:54 51°21.14 2°35.81 29.751103 0.803873 4.583206 0.027777
2003-09-22 07:42:58 51°21.14 2°35.79 30.388262 0.773252 4.396337 0.027777
2003-09-22 07:43:04 51°21.15 2°35.75 29.957672 0.754965 4.28507 0.027777
2003-09-22 07:43:08 51°21.15 2°35.73 29.957672 0.754965 4.28507 0.027777
2003-09-22 07:43:14 51°21.15 2°35.7 30.008988 0.808577 4.612249 0.027777
2003-09-22 07:43:18 51°21.15 2°35.67 29.608443 0.802619 4.575877 0.027777
2003-09-22 07:43:24 51°21.16 2°35.64 29.75305 0.766564 4.355853 -0.005933
2003-09-22 07:43:28 51°21.16 2°35.62 30.07772 0.824778 4.711605 0.027777
2003-09-22 07:43:34 51°21.16 2°35.58 29.960955 0.7325 4.148996 0.027777
2003-09-22 07:43:38 51°21.16 2°35.56 29.960955 0.7325 4.148996 0.027777
2003-09-22 07:43:44 51°21.17 2°35.52 30.224496 0.749845 4.25432 0.027777
2003-09-22 07:43:48 51°21.17 2°35.5 29.504698 0.823419 4.703556 0.027777
2003-09-22 07:43:54 51°21.17 2°35.47 29.738252 0.781507 4.447401 0.027777
2003-09-22 07:43:58 51°21.17 2°35.44 30.174874 0.768967 4.370947 -0.005933
2003-09-22 07:44:04 51°21.18 2°35.41 29.677432 0.803769 4.58352 -0.005933
2003-09-22 07:44:08 51°21.18 2°35.39 29.677432 0.803769 4.58352 -0.005933
2003-09-22 07:44:14 51°21.18 2°35.35 29.36278 0.737515 4.179863 0.027777
2003-09-22 07:44:18 51°21.18 2°35.33 29.855466 0.78621 4.476367 0.027777
2003-09-22 07:44:24 51°21.19 2°35.29 29.908617 0.849031 4.861173 0.027777
2003-09-22 07:44:28 51°21.19 2°35.27 29.276226 0.790286 4.501388 0.027777
2003-09-22 07:44:34 51°21.19 2°35.24 30.261356 0.823106 4.702263 -0.005933
2003-09-22 07:44:38 51°21.2 2°35.21 30.261356 0.823106 4.702263 -0.005933
2003-09-22 07:44:44 51°21.2 2°35.18 29.770218 0.779417 4.435244 0.027777
2003-09-22 07:44:48 51°21.2 2°35.16 29.862288 0.800842 4.566167 0.027777
2003-09-22 07:44:54 51°21.2 2°35.12 29.104712 0.79154 4.50945 -0.005933
2003-09-22 07:44:58 51°21.21 2°35.1 28.6028 0.791436 4.508812 0.027777
2003-09-22 07:45:04 51°21.21 2°35.07 29.862713 0.79802 4.549049 -0.005933
2003-09-22 07:45:10 51°21.21 2°35.03 29.862713 0.79802 4.549049 -0.005933
2003-09-22 07:45:14 51°21.21 2°35.01 29.986334 0.781612 4.448964 0.027777
2003-09-22 07:45:18 51°21.22 2°34.98 30.330563 0.793317 4.520506 0.061486
2003-09-22 07:45:24 51°21.22 2°34.95 29.816002 0.771371 4.386635 -0.005933
2003-09-22 07:45:28 51°21.22 2°34.93 30.4255 0.814116 4.647881 -0.005933
2003-09-22 07:45:34 51°21.22 2°34.89 29.755847 0.776282 4.416713 0.027777
2003-09-22 07:45:38 51°21.23 2°34.87 29.755847 0.776282 4.416713 0.027777
2003-09-22 07:45:44 51°21.23 2°34.84 30.221576 0.791122 4.507298 0.027777
2003-09-22 07:45:48 51°21.23 2°34.81 29.961979 0.800738 4.566275 -0.005933
2003-09-22 07:45:54 51°21.24 2°34.78 30.512013 0.783807 4.462823 -0.005933
2003-09-22 07:45:58 51°21.24 2°34.76 30.348056 0.777118 4.422075 -0.005933
2003-09-22 07:46:04 51°21.24 2°34.72 30.400408 0.752979 4.275093 0.027777
2003-09-22 07:46:08 51°21.24 2°34.7 30.400408 0.752979 4.275093 0.027777
2003-09-22 07:46:14 51°21.25 2°34.66 29.302513 0.840249 4.808728 0.027777
2003-09-22 07:46:18 51°21.25 2°34.64 29.850657 0.786419 4.479041 -0.005933
2003-09-22 07:46:24 51°21.25 2°34.61 30.261919 0.817357 4.668354 0.027777
2003-09-22 07:46:30 51°21.26 2°34.57 30.632798 0.782971 4.458183 0.027777
2003-09-22 07:46:34 51°21.26 2°34.55 30.43592 0.787778 4.487605 0.027777
2003-09-22 07:46:38 51°21.26 2°34.53 30.43592 0.787778 4.487605 0.027777
2003-09-22 07:46:44 51°21.26 2°34.49 29.88611 0.778372 4.430318 0.027777
2003-09-22 07:46:48 51°21.26 2°34.47 30.937742 0.837845 4.79439 -0.005933
2003-09-22 07:46:54 51°21.27 2°34.44 30.39265 0.779522 4.437465 -0.005933
2003-09-22 07:46:58 51°21.27 2°34.41 31.698339 0.806382 4.601762 -0.005933
2003-09-22 07:47:04 51°21.27 2°34.38 30.35933 0.784225 4.466305 -0.005933
2003-09-22 07:47:08 51°21.28 2°34.36 30.35933 0.784225 4.466305 -0.005933
2003-09-22 07:47:14 51°21.28 2°34.32 29.140159 0.779208 4.435749 0.027777
2003-09-22 07:47:18 51°21.28 2°34.3 29.694475 0.827705 4.732573 -0.005933
2003-09-22 07:47:24 51°21.28 2°34.27 30.130223 0.777432 4.42504 0.027777
2003-09-22 07:47:30 51°21.29 2°34.23 29.90572 0.810354 4.626423 0.027777
2003-09-22 07:47:34 51°21.29 2°34.21 29.702871 0.798229 4.552222 0.027777
2003-09-22 07:47:38 51°21.29 2°34.19 29.702871 0.798229 4.552222 0.027777
2003-09-22 07:47:44 51°21.29 2°34.15 29.288338 0.817566 4.670747 0.027777
2003-09-22 07:47:48 51°21.3 2°34.13 30.212428 0.784747 4.470027 -0.005933
2003-09-22 07:47:54 51°21.3 2°34.1 29.611564 0.776178 4.417783 0.027777
2003-09-22 07:47:58 51°21.3 2°34.07 30.368812 0.749949 4.258055 0.027777
2003-09-22 07:48:04 51°21.31 2°34.04 29.310596 0.781403 4.449872 0.027777
2003-09-22 07:48:08 51°21.31 2°34.02 29.310596 0.781403 4.449872 0.027777
2003-09-22 07:48:14 51°21.31 2°33.98 29.444934 0.810667 4.628825 0.027777
2003-09-22 07:48:18 51°21.31 2°33.96 29.475568 0.813489 4.646182 0.027777
2003-09-22 07:48:22 51°21.32 2°33.94 30.343947 0.762175 4.332736 -0.005933
2003-09-22 07:48:28 51°21.32 2°33.9 29.881445 0.800738 4.568245 -0.005933
2003-09-22 07:48:34 51°21.33 2°33.87 29.471873 0.795198 4.534362 0.027777
2003-09-22 07:48:40 51°21.33 2°33.83 29.471873 0.795198 4.534362 0.027777
2003-09-22 07:48:44 51°21.34 2°33.81 30.634897 0.739396 4.194335 -0.005933
2003-09-22 07:48:48 51°21.34 2°33.79 30.05833 0.823001 4.704841 -0.005933
2003-09-22 07:48:54 51°21.35 2°33.76 29.59617 0.774401 4.407535 -0.005933
2003-09-22 07:48:58 51°21.36 2°33.74 29.687708 0.72456 4.104508 0.027777
2003-09-22 07:49:04 51°21.37 2°33.71 30.397705 0.815998 4.662109 0.027777
2003-09-22 07:49:08 51°21.38 2°33.69 30.397705 0.815998 4.662109 0.027777
2003-09-22 07:49:14 51°21.39 2°33.66 30.605359 0.794676 4.531639 0.027777
2003-09-22 07:49:18 51°21.4 2°33.64 30.931433 0.813803 4.648864 -0.005933
2003-09-22 07:49:24 51°21.41 2°33.61 30.123706 0.782866 4.459668 -0.005933
2003-09-22 07:49:28 51°21.42 2°33.59 30.325082 0.775237 4.413161 0.027777
2003-09-22 07:49:34 51°21.44 2°33.57 30.386963 0.766459 4.359686 0.027777
2003-09-22 07:49:38 51°21.45 2°33.55 30.386963 0.766459 4.359686 0.027777
2003-09-22 07:49:44 51°21.46 2°33.53 29.343527 0.830109 4.749163 0.027777
2003-09-22 07:49:48 51°21.47 2°33.52 30.816288 0.789137 4.498245 0.027777
2003-09-22 07:49:54 51°21.49 2°33.5 29.814693 0.790913 4.509173 0.027777
2003-09-22 07:49:58 51°21.5 2°33.48 30.27637 0.769908 4.381104 -0.005933
2003-09-22 07:50:04 51°21.52 2°33.46 30.049691 0.821642 4.697695 -0.005933
2003-09-22 07:50:08 51°21.54 2°33.45 30.049691 0.821642 4.697695 -0.005933
2003-09-22 07:50:14 51°21.55 2°33.43 29.789009 0.750054 4.260338 -0.005933
2003-09-22 07:50:18 51°21.57 2°33.42 30.285088 0.854153 4.897693 -0.005933
2003-09-22 07:50:24 51°21.59 2°33.4 30.343947 0.732814 4.155651 -0.005933
2003-09-22 07:50:28 51°21.6 2°33.39 30.020489 0.767504 4.366837 -0.005933
2003-09-22 07:50:34 51°21.62 2°33.37 29.129773 0.765728 4.356135 -0.005933
2003-09-22 07:50:38 51°21.63 2°33.36 29.129773 0.765728 4.356135 -0.005933
2003-09-22 07:50:44 51°21.65 2°33.35 30.408375 0.813071 4.645625 -0.005933
2003-09-22 07:50:48 51°21.66 2°33.33 29.889008 0.795198 4.536252 -0.005933
2003-09-22 07:50:54 51°21.68 2°33.32 30.925054 0.783702 4.466037 0.027777
2003-09-22 07:50:58 51°21.7 2°33.31 30.499114 0.754651 4.288771 -0.005933
2003-09-22 07:51:04 51°21.72 2°33.29 29.770713 0.7767 4.42334 0.027777
2003-09-22 07:51:08 51°21.73 2°33.28 29.770713 0.7767 4.42334 0.027777
2003-09-22 07:51:14 51°21.75 2°33.26 30.644589 0.769176 4.37749 0.027777
2003-09-22 07:51:18 51°21.76 2°33.25 30.152481 0.759667 4.319516 -0.005933
2003-09-22 07:51:24 51°21.78 2°33.23 30.675407 0.84924 4.868179 0.027777
2003-09-22 07:51:28 51°21.8 2°33.22 30.461351 0.737933 4.187377 -0.005933
2003-09-22 07:51:34 51°21.82 2°33.21 29.206868 0.816416 4.666617 0.027777
2003-09-22 07:51:38 51°21.83 2°33.2 29.206868 0.816416 4.666617 0.027777
2003-09-22 07:51:44 51°21.85 2°33.19 30.493786 0.769699 4.380873 0.027777
2003-09-22 07:51:48 51°21.86 2°33.18 30.733929 0.768236 4.372013 0.027777
2003-09-22 07:51:54 51°21.88 2°33.16 31.676423 0.776596 4.423097 0.027777
2003-09-22 07:51:58 51°21.9 2°33.16 30.42343 0.768967 4.376606 0.027777
2003-09-22 07:52:04 51°21.92 2°33.14 30.298199 0.78203 4.456485 -0.005933
2003-09-22 07:52:08 51°21.93 2°33.13 30.298199 0.78203 4.456485 -0.005933
2003-09-22 07:52:14 51°21.96 2°33.12 29.968333 0.774506 4.4106 -0.005933
2003-09-22 07:52:18 51°21.97 2°33.11 31.033249 0.833873 4.774332 -0.005933
2003-09-22 07:52:24 51°21.99 2°33.1 31.175972 0.751308 4.269367 -0.005933
2003-09-22 07:52:28 51°22.01 2°33.09 31.246332 0.804396 4.59364 -0.005933
2003-09-22 07:52:34 51°22.03 2°33.08 29.096463 0.770326 4.385416 0.027777
2003-09-22 07:52:38 51°22.04 2°33.08 29.096463 0.770326 4.385416 0.027777
2003-09-22 07:52:44 51°22.06 2°33.07 28.909934 0.830632 4.754708 0.027777
2003-09-22 07:52:48 51°22.08 2°33.06 28.835507 0.833663 4.773403 -0.005933
2003-09-22 07:52:54 51°22.1 2°33.06 29.510451 0.790913 4.511321 0.027777
2003-09-22 07:52:58 51°22.12 2°33.05 29.510309 0.769908 4.383126 -0.005933
2003-09-22 07:53:04 51°22.14 2°33.05 29.105783 0.803142 4.586368 0.027777
2003-09-22 07:53:10 51°22.16 2°33.05 29.105783 0.803142 4.586368 0.027777
2003-09-22 07:53:14 51°22.18 2°33.04 29.220702 0.797811 4.553798 -0.005933
2003-09-22 07:53:18 51°22.19 2°33.04 29.164852 0.807218 4.611477 -0.005933
2003-09-22 07:53:24 51°22.21 2°33.04 29.374878 0.790913 4.511791 -0.005933
2003-09-22 07:53:28 51°22.23 2°33.03 29.401628 0.802828 4.584857 -0.005933
2003-09-22 07:53:34 51°22.25 2°33.03 29.518122 0.769803 4.383011 -0.005933
2003-09-22 07:53:38 51°22.27 2°33.02 29.518122 0.769803 4.383011 -0.005933
2003-09-22 07:53:44 51°22.29 2°33.02 29.604257 0.784329 4.471732 0.027777
2003-09-22 07:53:48 51°22.3 2°33.02 30.214011 0.823733 4.713187 -0.005933
2003-09-22 07:53:54 51°22.33 2°33.02 30.452232 0.801156 4.574751 0.027777
2003-09-22 07:53:58 51°22.34 2°33.01 30.829412 0.81328 4.64926 0.027777
2003-09-22 07:54:04 51°22.37 2°33.01 29.261975 0.779836 4.4446 -0.005933
2003-09-22 07:54:08 51°22.38 2°33.01 29.261975 0.779836 4.4446 -0.005933
2003-09-22 07:54:14 51°22.4 2°33 29.682074 0.824778 4.719957 0.027777
2003-09-22 07:54:18 51°22.42 2°33 29.906462 0.770639 4.38857 0.027777
2003-09-22 07:54:24 51°22.44 2°32.99 29.125204 0.760294 4.325525 0.027777
2003-09-22 07:54:28 51°22.46 2°32.99 30.143748 0.785374 4.478721 0.027777
2003-09-22 07:54:34 51°22.48 2°32.98 30.75133 0.737411 4.186258 0.027777
2003-09-22 07:54:38 51°22.49 2°32.98 30.75133 0.737411 4.186258 0.027777
2003-09-22 07:54:44 51°22.52 2°32.97 30.205249 0.837845 4.800605 0.027777
2003-09-22 07:54:48 51°22.53 2°32.96 30.608579 0.750263 4.264592 -0.005933
2003-09-22 07:54:54 51°22.55 2°32.96 29.933237 0.771684 4.395277 -0.005933
2003-09-22 07:54:58 51°22.57 2°32.95 29.977511 0.768863 4.378054 -0.005933
2003-09-22 07:55:04 51°22.59 2°32.94 31.159884 0.768131 4.373785 -0.039642
2003-09-22 07:55:10 51°22.61 2°32.93 31.159884 0.768131 4.373785 -0.039642
2003-09-22 07:55:14 51°22.63 2°32.93 30.616245 0.725396 4.113677 -0.005933
2003-09-22 07:55:18 51°22.64 2°32.92 30.358522 0.845372 4.847269 0.027777
2003-09-22 07:55:24 51°22.66 2°32.91 30.275772 0.754129 4.288526 0.027777
2003-09-22 07:55:28 51°22.68 2°32.9 30.352482 0.789659 4.50553 -0.005933
2003-09-22 07:55:34 51°22.7 2°32.89 30.904659 0.7674 4.369581 -0.005933
2003-09-22 07:55:38 51°22.71 2°32.88 30.904659 0.7674 4.369581 -0.005933
2003-09-22 07:55:44 51°22.73 2°32.87 29.986616 0.779 4.440484 -0.005933
2003-09-22 07:55:48 51°22.75 2°32.87 30.271975 0.796975 4.55051 -0.005933
2003-09-22 07:55:54 51°22.77 2°32.86 30.501673 0.821538 4.701043 0.027777
2003-09-22 07:55:58 51°22.78 2°32.85 30.657289 0.765937 4.360784 -0.005933
2003-09-22 07:56:04 51°22.81 2°32.84 30.505809 0.80032 4.571061 -0.005933
2003-09-22 07:56:08 51°22.82 2°32.84 30.505809 0.80032 4.571061 -0.005933
2003-09-22 07:56:14 51°22.84 2°32.83 29.995051 0.777014 4.42855 -0.005933
2003-09-22 07:56:18 51°22.86 2°32.82 30.112996 0.793213 4.527813 0.027777
2003-09-22 07:56:24 51°22.88 2°32.81 30.084205 0.740232 4.204416 -0.005933
2003-09-22 07:56:28 51°22.89 2°32.8 30.108098 0.769385 4.382156 0.027777
2003-09-22 07:56:34 51°22.91 2°32.79 30.200111 0.757368 4.308973 -0.005933
2003-09-22 07:56:38 51°22.93 2°32.79 30.200111 0.757368 4.308973 -0.005933
2003-09-22 07:56:44 51°22.95 2°32.78 30.481024 0.754024 4.288591 -0.005933
2003-09-22 07:56:48 51°22.97 2°32.77 30.293419 0.916577 5.288155 -0.005933
2003-09-22 07:56:54 51°22.99 2°32.76 30.494592 0.825928 4.728638 -0.039642
2003-09-22 07:56:58 51°23 2°32.75 30.048669 0.687685 3.886107 -0.005933
2003-09-22 07:57:04 51°23.02 2°32.74 30.188497 0.809936 4.630822 0.027777
2003-09-22 07:57:08 51°23.03 2°32.72 30.188497 0.809936 4.630822 0.027777
2003-09-22 07:57:14 51°23.05 2°32.7 30.172058 0.716829 4.062889 -0.005933
2003-09-22 07:57:18 51°23.06 2°32.69 30.523297 0.732083 4.155661 0.027777
2003-09-22 07:57:24 51°23.08 2°32.66 30.92366 0.695414 3.933336 -0.005933
2003-09-22 07:57:28 51°23.09 2°32.65 30.735572 0.743576 4.22577 0.027777
2003-09-22 07:57:34 51°23.1 2°32.62 30.877527 0.793944 4.533372 -0.005933
2003-09-22 07:57:38 51°23.11 2°32.6 30.877527 0.793944 4.533372 -0.005933
2003-09-22 07:57:44 51°23.12 2°32.57 30.851607 0.759354 4.32198 -0.005933
2003-09-22 07:57:50 51°23.13 2°32.54 29.053349 0.745561 4.237858 -0.005933
2003-09-22 07:57:54 51°23.14 2°32.52 30.64186 0.733023 4.161502 0.027777
2003-09-22 07:57:58 51°23.14 2°32.5 30.338678 0.807009 4.613357 0.027777
2003-09-22 07:58:04 51°23.15 2°32.47 30.237125 0.724665 4.110705 -0.005933
2003-09-22 07:58:08 51°23.16 2°32.45 30.237125 0.724665 4.110705 -0.005933
2003-09-22 07:58:14 51°23.17 2°32.42 29.911585 0.831155 4.761536 -0.005933
2003-09-22 07:58:18 51°23.18 2°32.4 29.634933 0.766355 4.3647 -0.005933